M I D A S
Marine Information and Data Acquisition System
Tripno 1077 of the Zeeleeuw from 2006-04-27 07:06:49 to 2006-04-27 13:13:56
Back to CruiseResearch ActivitiesStationsMapUnderway DataData graphs

EquipmentUnitsComment
TimeDGPSUTC
LatitudeDGPSDM.mWGS84
LongitudeDGPSDM.mWGS84
TemperatureSBE03/SBE38deg celciusITS90
ConductivitySBE21S/mITS90
SalinitySBE21 Practical Salinity Units
ChlorophylAChelsea fluorimeterg/lCalibrated in Aceton
Missing or incorrect values are displayed as -999
Sea surface data collected by the RV Zeeleeuw from 2006-04-27 06:12:50 to 2006-04-27 13:24:31
                                                                                    Next 1000 lines
Time Latitude Longitude Temperature Conductivity Salinity ChlorophylA
2006-04-27 06:13:00 51°13.602 2°56.097 18.2583 4.413653 32.584622 16.410546
2006-04-27 06:13:05 51°13.602 2°56.096 18.2606 4.413758 32.584932 16.444255
2006-04-27 06:13:10 51°13.603 2°56.097 18.2615 4.413653 32.584622 16.376836
2006-04-27 06:13:15 51°13.603 2°56.097 18.2646 4.413653 32.584622 16.376836
2006-04-27 06:13:20 51°13.603 2°56.096 18.2665 4.413653 32.584622 16.410546
2006-04-27 06:13:24 51°13.603 2°56.097 18.2661 4.413653 32.584622 16.410546
2006-04-27 06:13:30 51°13.603 2°56.097 18.268 4.413758 32.585492 16.410546
2006-04-27 06:13:35 51°13.603 2°56.097 18.2686 4.413653 32.585182 16.410546
2006-04-27 06:13:40 51°13.603 2°56.097 18.2708 4.413653 32.584622 16.410546
2006-04-27 06:13:44 51°13.602 2°56.097 18.273 4.413653 32.584622 16.410546
2006-04-27 06:13:50 51°13.602 2°56.097 18.2714 4.413653 32.584622 16.410546
2006-04-27 06:13:55 51°13.602 2°56.097 18.2714 4.413653 32.584622 16.410546
2006-04-27 06:14:00 51°13.603 2°56.097 18.2715 4.413547 32.584312 16.376836
2006-04-27 06:14:05 51°13.603 2°56.098 18.2744 4.413653 32.584622 16.410546
2006-04-27 06:14:10 51°13.603 2°56.098 18.2752 4.413653 32.584622 16.410546
2006-04-27 06:14:15 51°13.603 2°56.098 18.2758 4.413653 32.584622 16.410546
2006-04-27 06:14:20 51°13.603 2°56.099 18.2769 4.413653 32.584622 16.410546
2006-04-27 06:14:25 51°13.603 2°56.099 18.2787 4.413547 32.583752 16.410546
2006-04-27 06:14:30 51°13.602 2°56.099 18.2786 4.413653 32.584622 16.376836
2006-04-27 06:14:35 51°13.602 2°56.099 18.2784 4.413653 32.584622 16.376836
2006-04-27 06:14:40 51°13.602 2°56.099 18.2801 4.413547 32.584312 16.376836
2006-04-27 06:14:45 51°13.602 2°56.099 18.2793 4.413547 32.584312 16.376836
2006-04-27 06:14:50 51°13.602 2°56.099 18.2802 4.413547 32.583752 16.376836
2006-04-27 06:14:55 51°13.602 2°56.099 18.2805 4.413547 32.583752 16.376836
2006-04-27 06:15:00 51°13.602 2°56.099 18.2837 4.413442 32.582882 16.410546
2006-04-27 06:15:05 51°13.602 2°56.099 18.2875 4.413547 32.583752 16.376836
2006-04-27 06:15:10 51°13.602 2°56.099 18.2886 4.413547 32.583752 16.376836
2006-04-27 06:15:16 51°13.602 2°56.099 18.2887 4.413547 32.583752 16.376836
2006-04-27 06:15:21 51°13.601 2°56.099 18.2868 4.413653 32.584622 16.410546
2006-04-27 06:15:26 51°13.601 2°56.099 18.2883 4.413547 32.583752 16.376836
2006-04-27 06:15:31 51°13.601 2°56.099 18.2913 4.413547 32.584312 16.376836
2006-04-27 06:15:36 51°13.601 2°56.099 18.291 4.413442 32.583442 16.376836
2006-04-27 06:15:41 51°13.601 2°56.099 18.2918 4.413547 32.583752 16.376836
2006-04-27 06:15:45 51°13.601 2°56.099 18.2909 4.413547 32.583752 16.376836
2006-04-27 06:15:51 51°13.601 2°56.099 18.2931 4.413547 32.583752 16.376836
2006-04-27 06:15:56 51°13.6 2°56.099 18.2932 4.413442 32.583442 16.376836
2006-04-27 06:16:01 51°13.6 2°56.099 18.2934 4.413547 32.584312 16.410546
2006-04-27 06:16:05 51°13.6 2°56.099 18.2943 4.413547 32.583752 16.376836
2006-04-27 06:16:11 51°13.6 2°56.099 18.2945 4.413547 32.584312 16.376836
2006-04-27 06:16:16 51°13.6 2°56.099 18.2944 4.413547 32.584312 16.376836
2006-04-27 06:16:21 51°13.6 2°56.099 18.2939 4.413547 32.584312 16.376836
2006-04-27 06:16:25 51°13.6 2°56.099 18.2949 4.413442 32.583442 16.376836
2006-04-27 06:16:31 51°13.6 2°56.099 18.2967 4.413442 32.582882 16.376836
2006-04-27 06:16:36 51°13.6 2°56.099 18.2946 4.413442 32.583442 16.376836
2006-04-27 06:16:41 51°13.601 2°56.099 18.2938 4.413547 32.583192 16.376836
2006-04-27 06:16:45 51°13.601 2°56.099 18.2913 4.413547 32.583192 16.376836
2006-04-27 06:16:51 51°13.601 2°56.099 18.2888 4.413442 32.582322 16.376836
2006-04-27 06:16:55 51°13.601 2°56.099 18.2899 4.413442 32.582882 16.376836
2006-04-27 06:17:01 51°13.601 2°56.099 18.2882 4.413547 32.584312 16.410546
2006-04-27 06:17:06 51°13.601 2°56.099 18.288 4.413442 32.583442 16.376836
2006-04-27 06:17:11 51°13.601 2°56.099 18.2877 4.413442 32.582882 16.376836
2006-04-27 06:17:16 51°13.601 2°56.099 18.2878 4.413442 32.582882 16.376836
2006-04-27 06:17:21 51°13.601 2°56.099 18.2895 4.413336 32.582571 16.376836
2006-04-27 06:17:26 51°13.601 2°56.099 18.2913 4.413442 32.582882 16.343127
2006-04-27 06:17:30 51°13.601 2°56.099 18.2921 4.413547 32.583752 16.376836
2006-04-27 06:17:34 51°13.601 2°56.099 18.2943 4.413442 32.583442 16.376836
2006-04-27 06:17:39 51°13.601 2°56.099 18.3027 4.413336 32.582012 16.343127
2006-04-27 06:17:43 51°13.601 2°56.099 18.2878 4.413336 32.582012 16.343127
2006-04-27 06:17:48 51°13.601 2°56.099 18.2772 4.413336 32.582012 16.343127
2006-04-27 06:17:52 51°13.601 2°56.099 18.2652 4.413442 32.582322 16.376836
2006-04-27 06:17:57 51°13.601 2°56.099 18.2786 4.413336 32.582012 16.376836
2006-04-27 06:18:02 51°13.601 2°56.099 18.2848 4.413336 32.582012 16.343127
2006-04-27 06:18:08 51°13.601 2°56.099 18.2879 4.413336 32.582012 16.343127
2006-04-27 06:18:12 51°13.601 2°56.099 18.2909 4.413336 32.582012 16.343127
2006-04-27 06:18:17 51°13.601 2°56.099 18.2937 4.413336 32.582571 16.376836
2006-04-27 06:18:22 51°13.601 2°56.099 18.2954 4.413336 32.582012 16.343127
2006-04-27 06:18:27 51°13.601 2°56.099 18.2981 4.413336 32.582012 16.343127
2006-04-27 06:18:32 51°13.601 2°56.099 18.3002 4.413336 32.581452 16.376836
2006-04-27 06:18:37 51°13.601 2°56.1 18.3011 4.413336 32.582571 16.343127
2006-04-27 06:18:42 51°13.601 2°56.1 18.3009 4.413336 32.582571 16.343127
2006-04-27 06:18:47 51°13.601 2°56.1 18.3013 4.413336 32.582012 16.309418
2006-04-27 06:18:52 51°13.601 2°56.1 18.3037 4.413336 32.582571 16.376836
2006-04-27 06:18:57 51°13.601 2°56.1 18.3051 4.413336 32.582012 16.376836
2006-04-27 06:19:02 51°13.601 2°56.1 18.307 4.413231 32.581141 16.343127
2006-04-27 06:19:07 51°13.601 2°56.1 18.3078 4.413336 32.582012 16.343127
2006-04-27 06:19:12 51°13.601 2°56.1 18.3086 4.413336 32.582012 16.343127
2006-04-27 06:19:17 51°13.601 2°56.1 18.3097 4.413336 32.582012 16.343127
2006-04-27 06:19:22 51°13.601 2°56.1 18.3108 4.413336 32.581452 16.376836
2006-04-27 06:19:27 51°13.601 2°56.1 18.3118 4.413336 32.582012 16.343127
2006-04-27 06:19:32 51°13.602 2°56.1 18.313 4.413231 32.581141 16.343127
2006-04-27 06:19:37 51°13.602 2°56.1 18.3136 4.413231 32.580582 16.376836
2006-04-27 06:19:42 51°13.602 2°56.1 18.3139 4.413231 32.580582 16.376836
2006-04-27 06:19:47 51°13.602 2°56.1 18.3144 4.413125 32.580271 16.376836
2006-04-27 06:19:52 51°13.602 2°56.1 18.3149 4.413336 32.582012 16.343127
2006-04-27 06:19:57 51°13.602 2°56.1 18.3161 4.413125 32.580271 16.309418
2006-04-27 06:20:02 51°13.602 2°56.1 18.3171 4.413231 32.581701 16.343127
2006-04-27 06:20:07 51°13.602 2°56.1 18.3192 4.413125 32.580271 16.343127
2006-04-27 06:20:12 51°13.602 2°56.1 18.3205 4.413125 32.580271 16.343127
2006-04-27 06:20:17 51°13.602 2°56.1 18.3205 4.413336 32.582012 16.343127
2006-04-27 06:20:22 51°13.602 2°56.1 18.3219 4.413231 32.581701 16.343127
2006-04-27 06:20:28 51°13.602 2°56.1 18.3233 4.413231 32.581141 16.343127
2006-04-27 06:20:32 51°13.602 2°56.1 18.3243 4.413125 32.580271 16.343127
2006-04-27 06:20:37 51°13.602 2°56.1 18.3254 4.413231 32.581701 16.343127
2006-04-27 06:20:42 51°13.602 2°56.1 18.325 4.413231 32.581701 16.343127
2006-04-27 06:20:47 51°13.602 2°56.1 18.3255 4.413125 32.580271 16.309418
2006-04-27 06:20:52 51°13.602 2°56.1 18.325 4.413125 32.580831 16.343127
2006-04-27 06:20:57 51°13.602 2°56.1 18.3264 4.413231 32.581141 16.343127
2006-04-27 06:21:02 51°13.602 2°56.1 18.3267 4.413125 32.580271 16.343127
2006-04-27 06:21:07 51°13.602 2°56.1 18.3271 4.41302 32.579961 16.343127
2006-04-27 06:21:12 51°13.602 2°56.1 18.3274 4.41302 32.579961 16.343127
2006-04-27 06:21:17 51°13.602 2°56.1 18.3268 4.413125 32.580271 16.343127
2006-04-27 06:21:22 51°13.602 2°56.1 18.3278 4.413125 32.580271 16.309418
2006-04-27 06:21:27 51°13.602 2°56.1 18.3293 4.413125 32.580831 16.343127
2006-04-27 06:21:32 51°13.602 2°56.1 18.3299 4.413125 32.581391 16.343127
2006-04-27 06:21:37 51°13.602 2°56.1 18.3308 4.413125 32.580831 16.343127
2006-04-27 06:21:42 51°13.602 2°56.1 18.3299 4.413125 32.580831 16.343127
2006-04-27 06:21:47 51°13.602 2°56.1 18.3327 4.413125 32.580831 16.343127
2006-04-27 06:21:52 51°13.602 2°56.1 18.3341 4.41302 32.579401 16.343127
2006-04-27 06:21:57 51°13.602 2°56.1 18.3356 4.41302 32.579961 16.309418
2006-04-27 06:22:02 51°13.602 2°56.1 18.3366 4.413125 32.580831 16.309418
2006-04-27 06:22:08 51°13.602 2°56.1 18.3377 4.413125 32.580831 16.343127
2006-04-27 06:22:12 51°13.602 2°56.1 18.3379 4.413125 32.580831 16.343127
2006-04-27 06:22:17 51°13.602 2°56.1 18.3391 4.41302 32.579961 16.309418
2006-04-27 06:22:22 51°13.602 2°56.1 18.3396 4.413125 32.581391 16.309418
2006-04-27 06:22:28 51°13.602 2°56.1 18.3404 4.413125 32.580831 16.343127
2006-04-27 06:22:32 51°13.602 2°56.1 18.3415 4.41302 32.579961 16.275708
2006-04-27 06:22:37 51°13.602 2°56.1 18.3422 4.41302 32.579961 16.309418
2006-04-27 06:22:42 51°13.602 2°56.1 18.3438 4.41302 32.579961 16.309418
2006-04-27 06:22:48 51°13.602 2°56.1 18.3447 4.41302 32.579961 16.309418
2006-04-27 06:22:52 51°13.602 2°56.1 18.3447 4.41302 32.579401 16.309418
2006-04-27 06:22:57 51°13.602 2°56.1 18.3447 4.41302 32.579961 16.275708
2006-04-27 06:23:02 51°13.602 2°56.1 18.3451 4.412915 32.579091 16.275708
2006-04-27 06:23:07 51°13.601 2°56.099 18.3458 4.41302 32.579961 16.275708
2006-04-27 06:23:12 51°13.601 2°56.099 18.3463 4.41302 32.579961 16.275708
2006-04-27 06:23:17 51°13.601 2°56.099 18.3472 4.41302 32.579961 16.309418
2006-04-27 06:23:22 51°13.601 2°56.099 18.3479 4.41302 32.579961 16.275708
2006-04-27 06:23:27 51°13.601 2°56.099 18.3492 4.41302 32.579961 16.309418
2006-04-27 06:23:32 51°13.602 2°56.099 18.3501 4.41302 32.580521 16.275708
2006-04-27 06:23:37 51°13.601 2°56.099 18.3511 4.41302 32.580521 16.275708
2006-04-27 06:23:42 51°13.601 2°56.099 18.3511 4.41302 32.580521 16.275708
2006-04-27 06:23:47 51°13.602 2°56.099 18.3521 4.412915 32.579091 16.309418
2006-04-27 06:23:52 51°13.602 2°56.1 18.3519 4.41302 32.580521 16.309418
2006-04-27 06:23:57 51°13.602 2°56.1 18.3523 4.412915 32.578531 16.275708
2006-04-27 06:24:02 51°13.602 2°56.1 18.3517 4.41302 32.580521 16.309418
2006-04-27 06:24:07 51°13.602 2°56.1 18.3511 4.412915 32.579091 16.309418
2006-04-27 06:24:12 51°13.602 2°56.1 18.3524 4.412915 32.579091 16.309418
2006-04-27 06:24:17 51°13.602 2°56.1 18.3531 4.412915 32.57965 16.309418
2006-04-27 06:24:22 51°13.602 2°56.1 18.3545 4.41302 32.579961 16.309418
2006-04-27 06:24:27 51°13.602 2°56.1 18.3553 4.412809 32.57878 16.309418
2006-04-27 06:24:32 51°13.602 2°56.1 18.3566 4.412809 32.57878 16.275708
2006-04-27 06:24:37 51°13.602 2°56.1 18.3573 4.412915 32.579091 16.275708
2006-04-27 06:24:42 51°13.602 2°56.1 18.3579 4.412915 32.579091 16.275708
2006-04-27 06:24:47 51°13.602 2°56.1 18.3578 4.412915 32.579091 16.309418
2006-04-27 06:24:52 51°13.602 2°56.1 18.3592 4.412809 32.57822 16.309418
2006-04-27 06:24:57 51°13.602 2°56.1 18.3594 4.412915 32.579091 16.309418
2006-04-27 06:25:02 51°13.602 2°56.1 18.3606 4.412915 32.579091 16.275708
2006-04-27 06:25:07 51°13.602 2°56.1 18.3611 4.412915 32.57965 16.309418
2006-04-27 06:25:12 51°13.602 2°56.1 18.3614 4.412915 32.57965 16.309418
2006-04-27 06:25:17 51°13.602 2°56.1 18.3626 4.412809 32.57878 16.275708
2006-04-27 06:25:22 51°13.602 2°56.1 18.3631 4.412809 32.57822 16.275708
2006-04-27 06:25:27 51°13.602 2°56.099 18.3633 4.412809 32.57878 16.309418
2006-04-27 06:25:32 51°13.602 2°56.1 18.3625 4.412809 32.57822 16.275708
2006-04-27 06:25:37 51°13.602 2°56.099 18.3626 4.412809 32.57822 16.275708
2006-04-27 06:25:42 51°13.602 2°56.099 18.3626 4.412809 32.57822 16.275708
2006-04-27 06:25:47 51°13.601 2°56.099 18.362 4.412809 32.57822 16.275708
2006-04-27 06:25:52 51°13.601 2°56.099 18.3632 4.412809 32.57878 16.275708
2006-04-27 06:25:57 51°13.601 2°56.099 18.3634 4.412809 32.57822 16.275708
2006-04-27 06:26:02 51°13.601 2°56.099 18.3658 4.412809 32.57822 16.309418
2006-04-27 06:26:07 51°13.601 2°56.099 18.3663 4.412809 32.57822 16.275708
2006-04-27 06:26:12 51°13.601 2°56.099 18.3685 4.412809 32.57822 16.275708
2006-04-27 06:26:17 51°13.601 2°56.099 18.3698 4.412809 32.57822 16.275708
2006-04-27 06:26:22 51°13.601 2°56.099 18.3719 4.412809 32.57822 16.275708
2006-04-27 06:26:27 51°13.601 2°56.099 18.3735 4.412809 32.57822 16.275708
2006-04-27 06:26:32 51°13.601 2°56.099 18.3751 4.412704 32.57679 16.275708
2006-04-27 06:26:37 51°13.601 2°56.099 18.3781 4.412809 32.57822 16.275708
2006-04-27 06:26:42 51°13.601 2°56.099 18.3771 4.412809 32.57822 16.275708
2006-04-27 06:26:47 51°13.601 2°56.099 18.3791 4.412809 32.57822 16.275708
2006-04-27 06:26:52 51°13.601 2°56.099 18.3776 4.412809 32.57822 16.275708
2006-04-27 06:26:57 51°13.601 2°56.099 18.3803 4.412809 32.57822 16.309418
2006-04-27 06:27:02 51°13.601 2°56.099 18.3832 4.412704 32.57735 16.275708
2006-04-27 06:27:07 51°13.601 2°56.099 18.3877 4.412809 32.577661 16.275708
2006-04-27 06:27:12 51°13.601 2°56.099 18.3904 4.412809 32.577661 16.275708
2006-04-27 06:27:17 51°13.602 2°56.1 18.3917 4.412809 32.57822 16.241999
2006-04-27 06:27:22 51°13.602 2°56.099 18.3935 4.412704 32.57735 16.275708
2006-04-27 06:27:27 51°13.602 2°56.1 18.3948 4.412598 32.57648 16.241999
2006-04-27 06:27:32 51°13.602 2°56.099 18.3955 4.412809 32.577661 16.241999
2006-04-27 06:27:37 51°13.602 2°56.099 18.396 4.412704 32.57679 16.275708
2006-04-27 06:27:41 51°13.602 2°56.099 18.3964 4.412704 32.57679 16.275708
2006-04-27 06:27:47 51°13.602 2°56.099 18.3965 4.412704 32.57735 16.241999
2006-04-27 06:27:52 51°13.602 2°56.1 18.3967 4.412809 32.57822 16.241999
2006-04-27 06:27:57 51°13.602 2°56.1 18.398 4.412809 32.57822 16.275708
2006-04-27 06:28:02 51°13.602 2°56.099 18.3986 4.412704 32.57679 16.241999
2006-04-27 06:28:07 51°13.602 2°56.099 18.4 4.412809 32.577661 16.241999
2006-04-27 06:28:12 51°13.602 2°56.099 18.4012 4.412809 32.577661 16.241999
2006-04-27 06:28:17 51°13.602 2°56.099 18.4024 4.412704 32.57679 16.275708
2006-04-27 06:28:22 51°13.602 2°56.099 18.4027 4.412598 32.57592 16.275708
2006-04-27 06:28:27 51°13.602 2°56.099 18.4039 4.412598 32.57592 16.241999
2006-04-27 06:28:32 51°13.602 2°56.099 18.4044 4.412704 32.57679 16.241999
2006-04-27 06:28:37 51°13.602 2°56.099 18.4064 4.412598 32.57592 16.275708
2006-04-27 06:28:42 51°13.602 2°56.1 18.4064 4.412598 32.57592 16.275708
2006-04-27 06:28:47 51°13.602 2°56.1 18.4046 4.412704 32.57679 16.241999
2006-04-27 06:28:52 51°13.602 2°56.1 18.3992 4.412704 32.57735 16.241999
2006-04-27 06:28:57 51°13.602 2°56.1 18.3954 4.412809 32.577661 16.241999
2006-04-27 06:29:02 51°13.602 2°56.1 18.3884 4.412598 32.57592 16.241999
2006-04-27 06:29:07 51°13.602 2°56.1 18.3851 4.412493 32.57505 16.208289
2006-04-27 06:29:12 51°13.602 2°56.1 18.3848 4.412493 32.57505 16.208289
2006-04-27 06:29:17 51°13.602 2°56.1 18.3897 4.412493 32.57505 16.208289
2006-04-27 06:29:22 51°13.602 2°56.099 18.3935 4.412493 32.57505 16.208289
2006-04-27 06:29:27 51°13.602 2°56.099 18.3976 4.412598 32.57592 16.241999
2006-04-27 06:29:32 51°13.602 2°56.099 18.4019 4.412598 32.57536 16.241999
2006-04-27 06:29:37 51°13.602 2°56.099 18.4041 4.412598 32.57592 16.208289
2006-04-27 06:29:42 51°13.602 2°56.099 18.4089 4.412598 32.57592 16.208289
2006-04-27 06:29:47 51°13.602 2°56.099 18.4091 4.412704 32.576231 16.241999
2006-04-27 06:29:52 51°13.602 2°56.099 18.414 4.412704 32.575671 16.241999
2006-04-27 06:29:57 51°13.602 2°56.099 18.4134 4.412598 32.57536 16.241999
2006-04-27 06:30:02 51°13.602 2°56.099 18.4163 4.412598 32.574801 16.241999
2006-04-27 06:30:07 51°13.602 2°56.099 18.4149 4.412598 32.57592 16.241999
2006-04-27 06:30:12 51°13.602 2°56.099 18.4164 4.412598 32.57592 16.241999
2006-04-27 06:30:17 51°13.602 2°56.099 18.4159 4.412598 32.57592 16.208289
2006-04-27 06:30:21 51°13.602 2°56.099 18.4166 4.412598 32.57536 16.241999
2006-04-27 06:30:27 51°13.602 2°56.099 18.4178 4.412598 32.57536 16.208289
2006-04-27 06:30:32 51°13.602 2°56.099 18.4192 4.412704 32.576231 16.208289
2006-04-27 06:30:37 51°13.602 2°56.099 18.4208 4.412598 32.57536 16.241999
2006-04-27 06:30:41 51°13.602 2°56.099 18.4212 4.412598 32.57536 16.241999
2006-04-27 06:30:47 51°13.602 2°56.099 18.4221 4.412704 32.576231 16.208289
2006-04-27 06:30:52 51°13.602 2°56.099 18.4221 4.412598 32.57536 16.208289
2006-04-27 06:30:57 51°13.602 2°56.099 18.4221 4.412598 32.57536 16.241999
2006-04-27 06:31:02 51°13.602 2°56.099 18.4217 4.412704 32.575671 16.208289
2006-04-27 06:31:07 51°13.602 2°56.099 18.4221 4.412598 32.57536 16.241999
2006-04-27 06:31:11 51°13.602 2°56.099 18.4218 4.412598 32.57536 16.241999
2006-04-27 06:31:17 51°13.602 2°56.1 18.4227 4.412598 32.57536 16.208289
2006-04-27 06:31:21 51°13.602 2°56.1 18.4235 4.412493 32.57449 16.241999
2006-04-27 06:31:27 51°13.602 2°56.1 18.4228 4.412598 32.57536 16.208289
2006-04-27 06:31:32 51°13.602 2°56.1 18.4249 4.412598 32.574801 16.241999
2006-04-27 06:31:37 51°13.602 2°56.1 18.4232 4.412598 32.574801 16.208289
2006-04-27 06:31:42 51°13.601 2°56.1 18.4238 4.412598 32.574801 16.208289
2006-04-27 06:31:47 51°13.601 2°56.1 18.4244 4.412598 32.574801 16.208289
2006-04-27 06:31:52 51°13.601 2°56.1 18.4221 4.412493 32.573931 16.208289
2006-04-27 06:31:57 51°13.601 2°56.1 18.4205 4.412598 32.57536 16.241999
2006-04-27 06:32:02 51°13.601 2°56.1 18.4173 4.412598 32.574801 16.241999
2006-04-27 06:32:07 51°13.602 2°56.1 18.4138 4.412704 32.575671 16.17458
2006-04-27 06:32:11 51°13.601 2°56.1 18.4122 4.412704 32.575671 16.17458
2006-04-27 06:32:17 51°13.601 2°56.1 18.4102 4.412493 32.573371 16.208289
2006-04-27 06:32:22 51°13.601 2°56.1 18.409 4.412598 32.574241 16.208289
2006-04-27 06:32:27 51°13.601 2°56.1 18.41 4.412387 32.57306 16.208289
2006-04-27 06:32:32 51°13.601 2°56.1 18.4113 4.412493 32.573931 16.17458
2006-04-27 06:32:37 51°13.601 2°56.1 18.4141 4.412493 32.573931 16.17458
2006-04-27 06:32:42 51°13.601 2°56.1 18.4168 4.412493 32.573931 16.17458
2006-04-27 06:32:47 51°13.601 2°56.1 18.42 4.412598 32.574801 16.208289
2006-04-27 06:32:52 51°13.601 2°56.1 18.4228 4.412598 32.574801 16.208289
2006-04-27 06:32:57 51°13.601 2°56.1 18.4249 4.412598 32.574241 16.17458
2006-04-27 06:33:01 51°13.602 2°56.1 18.4263 4.412493 32.573371 16.208289
2006-04-27 06:33:07 51°13.602 2°56.1 18.4264 4.412493 32.573931 16.17458
2006-04-27 06:33:12 51°13.602 2°56.1 18.4281 4.412493 32.573931 16.17458
2006-04-27 06:33:17 51°13.602 2°56.1 18.4306 4.412598 32.574241 16.208289
2006-04-27 06:33:22 51°13.602 2°56.1 18.4309 4.412598 32.574241 16.208289
2006-04-27 06:33:27 51°13.602 2°56.1 18.4328 4.412598 32.574241 16.17458
2006-04-27 06:33:32 51°13.602 2°56.1 18.4327 4.412493 32.573371 16.208289
2006-04-27 06:33:37 51°13.602 2°56.1 18.4321 4.412493 32.573931 16.208289
2006-04-27 06:33:42 51°13.602 2°56.1 18.4336 4.412493 32.573931 16.208289
2006-04-27 06:33:47 51°13.602 2°56.1 18.4324 4.412598 32.574241 16.17458
2006-04-27 06:33:52 51°13.602 2°56.1 18.4342 4.412704 32.575111 16.140871
2006-04-27 06:33:57 51°13.601 2°56.1 18.4336 4.412704 32.575671 16.17458
2006-04-27 06:34:02 51°13.601 2°56.1 18.4345 4.412598 32.573681 16.17458
2006-04-27 06:34:07 51°13.601 2°56.1 18.434 4.412598 32.574241 16.208289
2006-04-27 06:34:12 51°13.601 2°56.1 18.4339 4.412598 32.574241 16.208289
2006-04-27 06:34:17 51°13.601 2°56.1 18.4352 4.412598 32.573681 16.208289
2006-04-27 06:34:22 51°13.601 2°56.1 18.437 4.412704 32.575111 16.17458
2006-04-27 06:34:27 51°13.601 2°56.1 18.4365 4.412704 32.574551 16.17458
2006-04-27 06:34:31 51°13.601 2°56.1 18.4356 4.412598 32.574241 16.17458
2006-04-27 06:34:37 51°13.601 2°56.1 18.4344 4.412598 32.573681 16.17458
2006-04-27 06:34:42 51°13.601 2°56.1 18.4339 4.412598 32.573681 16.17458
2006-04-27 06:34:47 51°13.601 2°56.1 18.4355 4.412493 32.572811 16.17458
2006-04-27 06:34:52 51°13.601 2°56.1 18.4367 4.412598 32.573122 16.17458
2006-04-27 06:34:57 51°13.601 2°56.1 18.4368 4.412598 32.573681 16.17458
2006-04-27 06:35:02 51°13.601 2°56.1 18.4387 4.412598 32.573681 16.17458
2006-04-27 06:35:07 51°13.601 2°56.1 18.4391 4.412598 32.573122 16.17458
2006-04-27 06:35:12 51°13.601 2°56.1 18.4426 4.412598 32.573122 16.17458
2006-04-27 06:35:17 51°13.601 2°56.1 18.4428 4.412598 32.573122 16.17458
2006-04-27 06:35:22 51°13.601 2°56.1 18.4442 4.412493 32.572811 16.208289
2006-04-27 06:35:27 51°13.601 2°56.1 18.4432 4.412493 32.572811 16.140871
2006-04-27 06:35:31 51°13.601 2°56.099 18.4445 4.412598 32.573122 16.17458
2006-04-27 06:35:37 51°13.601 2°56.099 18.4449 4.412493 32.572252 16.17458
2006-04-27 06:35:41 51°13.601 2°56.099 18.4472 4.412493 32.572252 16.17458
2006-04-27 06:35:47 51°13.601 2°56.099 18.4483 4.412598 32.573122 16.17458
2006-04-27 06:35:52 51°13.601 2°56.099 18.4498 4.412598 32.573122 16.140871
2006-04-27 06:35:57 51°13.601 2°56.099 18.451 4.412598 32.573122 16.17458
2006-04-27 06:36:02 51°13.601 2°56.099 18.4493 4.412493 32.572252 16.140871
2006-04-27 06:36:07 51°13.601 2°56.099 18.4493 4.412598 32.573122 16.17458
2006-04-27 06:36:11 51°13.601 2°56.099 18.449 4.412598 32.573122 16.17458
2006-04-27 06:36:17 51°13.601 2°56.099 18.4493 4.412598 32.573122 16.17458
2006-04-27 06:36:21 51°13.601 2°56.099 18.4504 4.412598 32.573122 16.17458
2006-04-27 06:36:27 51°13.601 2°56.099 18.4512 4.412598 32.572562 16.17458
2006-04-27 06:36:32 51°13.601 2°56.099 18.4546 4.412493 32.571692 16.140871
2006-04-27 06:36:37 51°13.601 2°56.099 18.4567 4.412598 32.573122 16.140871
2006-04-27 06:36:42 51°13.601 2°56.099 18.4573 4.412598 32.573122 16.140871
2006-04-27 06:36:47 51°13.601 2°56.099 18.4594 4.412598 32.572562 16.140871
2006-04-27 06:36:52 51°13.601 2°56.099 18.4597 4.412598 32.572562 16.140871
2006-04-27 06:36:57 51°13.601 2°56.099 18.4593 4.412598 32.572562 16.140871
2006-04-27 06:37:01 51°13.601 2°56.099 18.4614 4.412598 32.572562 16.140871
2006-04-27 06:37:07 51°13.601 2°56.099 18.4622 4.412598 32.573122 16.140871
2006-04-27 06:37:12 51°13.601 2°56.099 18.4626 4.412598 32.573122 16.140871
2006-04-27 06:37:17 51°13.601 2°56.099 18.465 4.412493 32.572252 16.17458
2006-04-27 06:37:22 51°13.601 2°56.099 18.4669 4.412598 32.572562 16.107161
2006-04-27 06:37:27 51°13.601 2°56.099 18.4682 4.412598 32.572562 16.140871
2006-04-27 06:37:32 51°13.601 2°56.099 18.4687 4.412598 32.573122 16.140871
2006-04-27 06:37:37 51°13.601 2°56.099 18.4709 4.412598 32.572002 16.140871
2006-04-27 06:37:42 51°13.601 2°56.099 18.4714 4.412598 32.572002 16.140871
2006-04-27 06:37:47 51°13.601 2°56.099 18.4722 4.412598 32.572562 16.107161
2006-04-27 06:37:52 51°13.601 2°56.099 18.4718 4.412598 32.572562 16.140871
2006-04-27 06:37:57 51°13.601 2°56.099 18.4718 4.412598 32.572002 16.140871
2006-04-27 06:38:01 51°13.601 2°56.099 18.4732 4.412598 32.572002 16.140871
2006-04-27 06:38:07 51°13.601 2°56.098 18.4733 4.412598 32.572562 16.140871
2006-04-27 06:38:12 51°13.601 2°56.098 18.4741 4.412598 32.572562 16.140871
2006-04-27 06:38:17 51°13.601 2°56.098 18.4751 4.412704 32.573992 16.140871
2006-04-27 06:38:22 51°13.601 2°56.099 18.4734 4.412704 32.573432 16.107161
2006-04-27 06:38:27 51°13.601 2°56.099 18.4754 4.412598 32.572002 16.140871
2006-04-27 06:38:32 51°13.601 2°56.099 18.4767 4.412598 32.572002 16.140871
2006-04-27 06:38:37 51°13.601 2°56.099 18.4773 4.412704 32.573432 16.107161
2006-04-27 06:38:42 51°13.601 2°56.099 18.48 4.412704 32.573432 16.107161
2006-04-27 06:38:47 51°13.601 2°56.099 18.4808 4.412704 32.572872 16.140871
2006-04-27 06:38:52 51°13.601 2°56.099 18.4823 4.412598 32.572562 16.140871
2006-04-27 06:38:57 51°13.601 2°56.099 18.4834 4.412598 32.572002 16.107161
2006-04-27 06:39:02 51°13.601 2°56.099 18.4831 4.412598 32.572002 16.107161
2006-04-27 06:39:07 51°13.601 2°56.099 18.4842 4.412704 32.572872 16.107161
2006-04-27 06:39:12 51°13.601 2°56.099 18.4836 4.412704 32.572872 16.107161
2006-04-27 06:39:17 51°13.601 2°56.099 18.4844 4.412598 32.571443 16.140871
2006-04-27 06:39:21 51°13.601 2°56.099 18.4825 4.412493 32.570573 16.107161
2006-04-27 06:39:27 51°13.601 2°56.099 18.4844 4.412598 32.572002 16.140871
2006-04-27 06:39:32 51°13.601 2°56.099 18.4829 4.412598 32.572002 16.140871
2006-04-27 06:39:37 51°13.601 2°56.098 18.4842 4.412493 32.571692 16.107161
2006-04-27 06:39:42 51°13.601 2°56.098 18.484 4.412493 32.571692 16.107161
2006-04-27 06:39:47 51°13.601 2°56.098 18.4855 4.412598 32.572562 16.107161
2006-04-27 06:39:52 51°13.601 2°56.098 18.4879 4.412493 32.571132 16.140871
2006-04-27 06:39:57 51°13.601 2°56.098 18.489 4.412598 32.570883 16.107161
2006-04-27 06:40:01 51°13.601 2°56.098 18.4913 4.412704 32.572313 16.107161
2006-04-27 06:40:07 51°13.601 2°56.098 18.4915 4.412598 32.571443 16.140871
2006-04-27 06:40:12 51°13.601 2°56.098 18.4922 4.412598 32.571443 16.140871
2006-04-27 06:40:17 51°13.601 2°56.098 18.4918 4.412704 32.571753 16.107161
2006-04-27 06:40:22 51°13.601 2°56.098 18.4927 4.412598 32.571443 16.073452
2006-04-27 06:40:27 51°13.601 2°56.098 18.4933 4.412598 32.572002 16.107161
2006-04-27 06:40:32 51°13.601 2°56.098 18.4943 4.412704 32.572313 16.107161
2006-04-27 06:40:37 51°13.602 2°56.098 18.4958 4.412598 32.571443 16.107161
2006-04-27 06:40:42 51°13.602 2°56.098 18.4971 4.412598 32.571443 16.107161
2006-04-27 06:40:47 51°13.602 2°56.099 18.4992 4.412598 32.570883 16.107161
2006-04-27 06:40:52 51°13.602 2°56.098 18.5002 4.412704 32.571194 16.107161
2006-04-27 06:40:57 51°13.602 2°56.099 18.4996 4.412704 32.571753 16.107161
2006-04-27 06:41:02 51°13.602 2°56.099 18.499 4.412598 32.570883 16.107161
2006-04-27 06:41:07 51°13.602 2°56.099 18.4996 4.412598 32.570883 16.107161
2006-04-27 06:41:11 51°13.602 2°56.099 18.4992 4.412598 32.570883 16.107161
2006-04-27 06:41:17 51°13.602 2°56.099 18.4994 4.412598 32.570883 16.073452
2006-04-27 06:41:21 51°13.601 2°56.099 18.4991 4.412598 32.571443 16.107161
2006-04-27 06:41:27 51°13.601 2°56.099 18.4978 4.412598 32.570883 16.073452
2006-04-27 06:41:32 51°13.601 2°56.099 18.4988 4.412598 32.570324 16.107161
2006-04-27 06:41:37 51°13.601 2°56.099 18.4994 4.412598 32.570883 16.073452
2006-04-27 06:41:42 51°13.601 2°56.099 18.5029 4.412598 32.570883 16.073452
2006-04-27 06:41:47 51°13.601 2°56.099 18.5043 4.412704 32.571194 16.073452
2006-04-27 06:41:52 51°13.601 2°56.099 18.506 4.412598 32.570324 16.073452
2006-04-27 06:41:57 51°13.602 2°56.099 18.5088 4.412598 32.570883 16.073452
2006-04-27 06:42:01 51°13.602 2°56.099 18.5093 4.412598 32.570883 16.107161
2006-04-27 06:42:07 51°13.602 2°56.099 18.5097 4.412704 32.571194 16.107161
2006-04-27 06:42:12 51°13.602 2°56.099 18.5125 4.412704 32.571194 16.107161
2006-04-27 06:42:17 51°13.602 2°56.099 18.5136 4.412598 32.570324 16.073452
2006-04-27 06:42:22 51°13.602 2°56.099 18.514 4.412704 32.571753 16.073452
2006-04-27 06:42:27 51°13.602 2°56.099 18.5155 4.412598 32.570883 16.107161
2006-04-27 06:42:32 51°13.602 2°56.099 18.5158 4.412704 32.571194 16.073452
2006-04-27 06:42:37 51°13.602 2°56.099 18.5182 4.412704 32.571194 16.039742
2006-04-27 06:42:42 51°13.602 2°56.099 18.5177 4.412704 32.571194 16.039742
2006-04-27 06:42:47 51°13.602 2°56.099 18.5147 4.412704 32.571194 16.073452
2006-04-27 06:42:52 51°13.602 2°56.099 18.5163 4.412704 32.571194 16.073452
2006-04-27 06:42:57 51°13.602 2°56.099 18.5223 4.412704 32.571194 16.073452
2006-04-27 06:43:02 51°13.601 2°56.099 18.5302 4.412704 32.571194 16.039742
2006-04-27 06:43:07 51°13.601 2°56.099 18.5291 4.412704 32.571194 16.073452
2006-04-27 06:43:12 51°13.602 2°56.099 18.5314 4.412704 32.571194 16.073452
2006-04-27 06:43:17 51°13.602 2°56.099 18.5364 4.412598 32.570324 16.073452
2006-04-27 06:43:21 51°13.602 2°56.099 18.5389 4.412704 32.571753 16.073452
2006-04-27 06:43:27 51°13.602 2°56.099 18.5421 4.412704 32.571194 16.039742
2006-04-27 06:43:32 51°13.601 2°56.099 18.5449 4.412598 32.570883 16.039742
2006-04-27 06:43:37 51°13.601 2°56.099 18.5454 4.412598 32.570324 16.039742
2006-04-27 06:43:42 51°13.601 2°56.099 18.5478 4.412598 32.570324 16.039742
2006-04-27 06:43:47 51°13.602 2°56.099 18.5511 4.412704 32.571194 16.039742
2006-04-27 06:43:52 51°13.602 2°56.099 18.5478 4.412704 32.571194 16.039742
2006-04-27 06:43:57 51°13.602 2°56.099 18.5503 4.412704 32.571753 16.039742
2006-04-27 06:44:02 51°13.602 2°56.099 18.5555 4.412704 32.571194 16.039742
2006-04-27 06:44:07 51°13.602 2°56.099 18.5581 4.412704 32.571194 16.073452
2006-04-27 06:44:11 51°13.602 2°56.099 18.5608 4.412704 32.571194 16.073452
2006-04-27 06:44:17 51°13.602 2°56.099 18.5534 4.412704 32.571194 16.039742
2006-04-27 06:44:21 51°13.602 2°56.099 18.5398 4.412704 32.571194 16.039742
2006-04-27 06:44:27 51°13.602 2°56.099 18.5293 4.412704 32.570634 16.073452
2006-04-27 06:44:32 51°13.602 2°56.099 18.5221 4.412704 32.570634 16.039742
2006-04-27 06:44:37 51°13.602 2°56.099 18.5214 4.412704 32.570075 16.039742
2006-04-27 06:44:42 51°13.602 2°56.099 18.5212 4.412704 32.570075 16.039742
2006-04-27 06:44:47 51°13.602 2°56.099 18.5273 4.412809 32.571504 16.039742
2006-04-27 06:44:52 51°13.602 2°56.099 18.5347 4.412598 32.570324 16.039742
2006-04-27 06:44:57 51°13.602 2°56.099 18.5466 4.412704 32.570634 16.039742
2006-04-27 06:45:01 51°13.602 2°56.099 18.5575 4.412598 32.570324 16.006033
2006-04-27 06:45:07 51°13.602 2°56.099 18.566 4.412704 32.571194 16.006033
2006-04-27 06:45:12 51°13.602 2°56.099 18.5735 4.412704 32.571194 16.006033
2006-04-27 06:45:17 51°13.602 2°56.099 18.5692 4.412704 32.570634 16.006033
2006-04-27 06:45:22 51°13.602 2°56.099 18.5685 4.412704 32.571194 16.006033
2006-04-27 06:45:27 51°13.602 2°56.099 18.5709 4.412704 32.570634 16.006033
2006-04-27 06:45:32 51°13.602 2°56.099 18.5737 4.412598 32.569764 16.039742
2006-04-27 06:45:37 51°13.602 2°56.099 18.5801 4.412704 32.570634 16.006033
2006-04-27 06:45:42 51°13.602 2°56.099 18.5742 4.412704 32.570634 16.006033
2006-04-27 06:45:47 51°13.602 2°56.099 18.557 4.412704 32.570634 16.006033
2006-04-27 06:45:52 51°13.602 2°56.1 18.545 4.412704 32.571194 16.006033
2006-04-27 06:45:57 51°13.602 2°56.1 18.5484 4.412704 32.570634 16.039742
2006-04-27 06:46:02 51°13.602 2°56.1 18.5467 4.412809 32.571504 16.006033
2006-04-27 06:46:07 51°13.602 2°56.1 18.5479 4.412704 32.570634 16.006033
2006-04-27 06:46:12 51°13.602 2°56.1 18.5506 4.412704 32.570634 16.006033
2006-04-27 06:46:17 51°13.602 2°56.099 18.5544 4.412598 32.569764 16.039742
2006-04-27 06:46:21 51°13.602 2°56.099 18.5583 4.412809 32.571504 16.039742
2006-04-27 06:46:27 51°13.602 2°56.099 18.5606 4.412809 32.571504 16.006033
2006-04-27 06:46:32 51°13.602 2°56.099 18.56 4.412704 32.570634 16.039742
2006-04-27 06:46:37 51°13.602 2°56.099 18.5653 4.412704 32.570075 16.006033
2006-04-27 06:46:42 51°13.602 2°56.099 18.5692 4.412704 32.570075 16.006033
2006-04-27 06:46:47 51°13.602 2°56.099 18.5719 4.412704 32.570634 16.006033
2006-04-27 06:46:52 51°13.602 2°56.099 18.572 4.412704 32.570634 16.006033
2006-04-27 06:46:57 51°13.602 2°56.1 18.5678 4.412598 32.569764 16.006033
2006-04-27 06:47:02 51°13.602 2°56.1 18.5589 4.412809 32.571504 16.006033
2006-04-27 06:47:07 51°13.602 2°56.1 18.5512 4.412914 32.571815 16.006033
2006-04-27 06:47:12 51°13.602 2°56.1 18.5642 4.412914 32.571815 16.006033
2006-04-27 06:47:17 51°13.602 2°56.1 18.5859 4.412809 32.570945 16.006033
2006-04-27 06:47:22 51°13.602 2°56.099 18.5951 4.412809 32.570945 16.006033
2006-04-27 06:47:27 51°13.602 2°56.1 18.6024 4.412704 32.570634 15.972324
2006-04-27 06:47:31 51°13.602 2°56.1 18.6123 4.412704 32.571194 15.938614
2006-04-27 06:47:37 51°13.602 2°56.099 18.6224 4.412704 32.570634 15.972324
2006-04-27 06:47:41 51°13.602 2°56.099 18.6333 4.412704 32.570634 15.972324
2006-04-27 06:47:47 51°13.602 2°56.099 18.6546 4.412809 32.571504 15.972324
2006-04-27 06:47:52 51°13.602 2°56.099 18.6765 4.412704 32.570634 15.972324
2006-04-27 06:47:57 51°13.602 2°56.099 18.686 4.412809 32.570385 15.972324
2006-04-27 06:48:02 51°13.602 2°56.099 18.6919 4.412704 32.570075 15.972324
2006-04-27 06:48:07 51°13.602 2°56.099 18.6938 4.412704 32.570075 15.972324
2006-04-27 06:48:11 51°13.601 2°56.099 18.6922 4.412704 32.570075 15.972324
2006-04-27 06:48:17 51°13.601 2°56.099 18.6896 4.412704 32.570075 15.938614
2006-04-27 06:48:21 51°13.601 2°56.099 18.6831 4.412809 32.570945 15.904905
2006-04-27 06:48:27 51°13.601 2°56.099 18.6718 4.412809 32.570945 15.938614
2006-04-27 06:48:32 51°13.601 2°56.099 18.6609 4.412704 32.570075 15.938614
2006-04-27 06:48:37 51°13.601 2°56.099 18.6511 4.412704 32.570634 15.938614
2006-04-27 06:48:42 51°13.601 2°56.099 18.6435 4.412704 32.570634 15.938614
2006-04-27 06:48:47 51°13.601 2°56.099 18.64 4.412809 32.570945 15.938614
2006-04-27 06:48:52 51°13.601 2°56.099 18.6381 4.412704 32.570075 15.972324
2006-04-27 06:48:57 51°13.601 2°56.099 18.6384 4.412704 32.570075 15.938614
2006-04-27 06:49:01 51°13.601 2°56.099 18.6415 4.412809 32.570945 15.938614
2006-04-27 06:49:07 51°13.601 2°56.099 18.6468 4.412704 32.570634 15.972324
2006-04-27 06:49:12 51°13.601 2°56.099 18.6485 4.412704 32.570634 15.972324
2006-04-27 06:49:17 51°13.601 2°56.1 18.6332 4.412704 32.569515 15.938614
2006-04-27 06:49:22 51°13.601 2°56.099 18.5777 4.412809 32.570945 15.904905
2006-04-27 06:49:27 51°13.601 2°56.099 18.542 4.412598 32.569764 15.938614
2006-04-27 06:49:32 51°13.601 2°56.099 18.5587 4.412704 32.569515 15.972324
2006-04-27 06:49:37 51°13.601 2°56.099 18.5908 4.412809 32.570385 15.938614
2006-04-27 06:49:41 51°13.601 2°56.1 18.5938 4.412809 32.570385 15.938614
2006-04-27 06:49:47 51°13.601 2°56.1 18.5918 4.412704 32.569515 15.904905
2006-04-27 06:49:52 51°13.601 2°56.1 18.6011 4.412809 32.570945 15.938614
2006-04-27 06:49:57 51°13.601 2°56.1 18.6069 4.412809 32.570385 15.972324
2006-04-27 06:50:02 51°13.601 2°56.1 18.5211 4.412809 32.570945 15.938614
2006-04-27 06:50:07 51°13.601 2°56.099 18.4788 4.412809 32.570385 15.972324
2006-04-27 06:50:12 51°13.601 2°56.099 18.4939 4.412809 32.570385 15.972324
2006-04-27 06:50:17 51°13.602 2°56.097 18.4605 4.412704 32.569515 15.972324
2006-04-27 06:50:22 51°13.602 2°56.096 18.4462 4.412809 32.570385 15.972324
2006-04-27 06:50:27 51°13.603 2°56.094 18.5126 4.412704 32.568956 15.972324
2006-04-27 06:50:32 51°13.603 2°56.091 18.5702 4.412704 32.569515 15.972324
2006-04-27 06:50:37 51°13.604 2°56.087 18.5775 4.412809 32.570945 15.938614
2006-04-27 06:50:41 51°13.604 2°56.084 18.5977 4.412809 32.570945 15.938614
2006-04-27 06:50:47 51°13.605 2°56.079 18.5892 4.412809 32.570945 15.938614
2006-04-27 06:50:52 51°13.607 2°56.074 18.6116 4.412598 32.569205 15.938614
2006-04-27 06:50:57 51°13.608 2°56.069 18.5891 4.412704 32.568956 15.972324
2006-04-27 06:51:02 51°13.609 2°56.063 18.6231 4.412703 32.568396 15.938614
2006-04-27 06:51:07 51°13.611 2°56.057 18.6396 4.412809 32.568707 15.938614
2006-04-27 06:51:12 51°13.613 2°56.05 18.615 4.412809 32.568707 15.938614
2006-04-27 06:51:17 51°13.614 2°56.043 18.6109 4.412703 32.567837 15.938614
2006-04-27 06:51:22 51°13.616 2°56.036 18.627 4.412598 32.567526 15.938614
2006-04-27 06:51:27 51°13.618 2°56.028 18.6303 4.412598 32.567526 15.972324
2006-04-27 06:51:32 51°13.62 2°56.02 18.6267 4.412704 32.568956 15.938614
2006-04-27 06:51:37 51°13.623 2°56.012 18.6211 4.412704 32.568956 15.904905
2006-04-27 06:51:42 51°13.625 2°56.003 18.5381 4.412704 32.568956 15.904905
2006-04-27 06:51:47 51°13.627 2°55.994 18.6146 4.412704 32.568956 15.938614
2006-04-27 06:51:52 51°13.629 2°55.985 18.5888 4.412703 32.568396 15.938614
2006-04-27 06:51:57 51°13.631 2°55.976 18.6092 4.412598 32.566407 15.938614
2006-04-27 06:52:01 51°13.633 2°55.969 17.6448 4.412809 32.568707 15.904905
2006-04-27 06:52:07 51°13.635 2°55.958 15.3074 4.412703 32.567837 15.938614
2006-04-27 06:52:12 51°13.637 2°55.949 13.8598 4.412703 32.567837 15.938614
2006-04-27 06:52:17 51°13.639 2°55.94 12.9788 3.220098 22.850156 18.803913
2006-04-27 06:52:22 51°13.642 2°55.931 12.5354 4.392988 32.387421 17.86005
2006-04-27 06:52:27 51°13.644 2°55.922 12.2233 4.255615 30.881778 19.882614
2006-04-27 06:52:32 51°13.646 2°55.913 12.0899 4.247184 30.929072 13.949759
2006-04-27 06:52:37 51°13.649 2°55.904 11.9461 4.132731 31.133837 11.017042
2006-04-27 06:52:41 51°13.652 2°55.897 11.8431 4.132731 31.133837 11.017042
2006-04-27 06:52:47 51°13.655 2°55.887 11.747 4.081732 31.578856 12.76993
2006-04-27 06:52:52 51°13.659 2°55.878 11.6659 3.742743 29.644947 11.893486
2006-04-27 06:52:57 51°13.662 2°55.869 11.6333 3.637827 29.599636 11.08446
2006-04-27 06:53:01 51°13.665 2°55.862 11.5976 3.586428 29.671569 10.646238
2006-04-27 06:53:07 51°13.67 2°55.851 11.6115 3.51997 29.518171 10.342853
2006-04-27 06:53:12 51°13.674 2°55.842 11.5797 3.51997 29.518171 10.342853
2006-04-27 06:53:17 51°13.678 2°55.834 11.5746 3.485532 29.46044 10.140597
2006-04-27 06:53:21 51°13.682 2°55.827 11.4905 3.456571 29.350963 9.904631
2006-04-27 06:53:27 51°13.687 2°55.817 11.5019 3.414972 29.093154 9.736084
2006-04-27 06:53:32 51°13.691 2°55.81 11.4688 3.413605 29.173828 9.601247
2006-04-27 06:53:37 51°13.695 2°55.802 11.4311 3.414448 29.251375 9.668665
2006-04-27 06:53:42 51°13.699 2°55.795 11.4589 3.414448 29.251375 9.668665
2006-04-27 06:53:47 51°13.702 2°55.788 11.4705 3.405182 29.221973 9.97205
2006-04-27 06:53:52 51°13.706 2°55.781 11.4499 3.396757 29.18321 10.106888
2006-04-27 06:53:57 51°13.71 2°55.773 11.4352 3.3738 28.996059 10.208016
2006-04-27 06:54:01 51°13.713 2°55.767 11.4435 3.373274 29.029216 10.174306
2006-04-27 06:54:07 51°13.717 2°55.758 11.4264 3.386859 29.18916 10.073178
2006-04-27 06:54:12 51°13.72 2°55.751 11.4265 3.386859 29.18916 10.073178
2006-04-27 06:54:17 51°13.723 2°55.744 11.3906 3.384016 29.189319 10.005759
2006-04-27 06:54:22 51°13.725 2°55.737 11.3959 3.377382 29.138321 9.97205
2006-04-27 06:54:27 51°13.727 2°55.731 11.3866 3.372222 29.103254 9.870922
2006-04-27 06:54:32 51°13.729 2°55.725 11.3914 3.325889 28.680825 9.837212
2006-04-27 06:54:37 51°13.731 2°55.72 11.3792 3.343053 28.850946 9.702375
2006-04-27 06:54:41 51°13.732 2°55.717 11.3716 3.343053 28.850946 9.702375
2006-04-27 06:54:47 51°13.733 2°55.714 11.3806 3.348213 28.911373 9.668665
2006-04-27 06:54:52 51°13.733 2°55.713 11.3745 3.316518 28.616979 9.668665
2006-04-27 06:54:57 51°13.734 2°55.712 11.3771 3.353373 28.981759 9.702375
2006-04-27 06:55:01 51°13.734 2°55.713 11.3668 3.344318 28.907422 9.702375
2006-04-27 06:55:07 51°13.734 2°55.714 11.367 3.341369 28.887219 9.702375
2006-04-27 06:55:12 51°13.734 2°55.716 11.3772 3.341369 28.887219 9.702375
2006-04-27 06:55:17 51°13.734 2°55.718 11.3647 3.35211 29.000631 9.736084
2006-04-27 06:55:22 51°13.735 2°55.72 11.3557 3.357691 29.058474 9.736084
2006-04-27 06:55:27 51°13.735 2°55.721 11.3566 3.356428 29.050087 9.736084
2006-04-27 06:55:32 51°13.735 2°55.721 11.364 3.349688 28.991059 9.803503
2006-04-27 06:55:37 51°13.734 2°55.721 11.3759 3.348951 28.986473 9.837212
2006-04-27 06:55:41 51°13.734 2°55.72 11.3719 3.348951 28.986473 9.837212
2006-04-27 06:55:47 51°13.732 2°55.717 11.3734 3.36064 29.102929 9.837212
2006-04-27 06:55:51 51°13.731 2°55.716 11.3597 3.359377 29.097033 9.837212
2006-04-27 06:55:57 51°13.73 2°55.713 11.368 3.34653 28.976273 9.837212
2006-04-27 06:56:01 51°13.729 2°55.712 11.3622 3.344739 28.960344 9.803503
2006-04-27 06:56:07 51°13.728 2°55.71 11.3586 3.341475 28.932755 9.769794
2006-04-27 06:56:12 51°13.726 2°55.708 11.3547 3.341475 28.932755 9.769794
2006-04-27 06:56:17 51°13.725 2°55.708 11.3445 3.330208 28.824106 9.769794
2006-04-27 06:56:21 51°13.725 2°55.707 11.348 3.327575 28.798257 9.803503
2006-04-27 06:56:27 51°13.725 2°55.707 11.3394 3.317361 28.702844 9.870922
2006-04-27 06:56:32 51°13.725 2°55.707 11.3369 3.309675 28.629212 9.870922
2006-04-27 06:56:37 51°13.726 2°55.708 11.3407 3.31694 28.70311 9.938341
2006-04-27 06:56:42 51°13.727 2°55.709 11.3548 3.31694 28.70311 9.938341
2006-04-27 06:56:47 51°13.729 2°55.71 11.3409 3.319573 28.732643 10.005759
2006-04-27 06:56:52 51°13.731 2°55.711 11.3469 3.317572 28.717774 10.140597
2006-04-27 06:56:57 51°13.734 2°55.712 11.3564 3.300935 28.562647 10.208016
2006-04-27 06:57:02 51°13.737 2°55.712 11.3471 3.312939 28.6832 10.309144
2006-04-27 06:57:07 51°13.74 2°55.713 11.3457 3.317994 28.735969 10.342853
2006-04-27 06:57:12 51°13.743 2°55.712 11.3453 3.317994 28.735969 10.342853
2006-04-27 06:57:17 51°13.747 2°55.71 11.3477 3.325996 28.812112 10.342853
2006-04-27 06:57:20 51°13.75 2°55.709 11.351 3.32547 28.805209 10.376563
2006-04-27 06:57:27 51°13.756 2°55.705 11.3483 3.317572 28.73193 10.342853
2006-04-27 06:57:32 51°13.761 2°55.701 11.3422 3.294723 28.512917 10.376563
2006-04-27 06:57:37 51°13.767 2°55.696 11.3492 3.305884 28.618645 10.410272
2006-04-27 06:57:41 51°13.771 2°55.691 11.3549 3.305884 28.618645 10.410272
2006-04-27 06:57:47 51°13.779 2°55.684 11.3798 3.308938 28.650984 10.477691
2006-04-27 06:57:50 51°13.783 2°55.681 11.3907 3.311149 28.672184 10.612529
2006-04-27 06:57:57 51°13.789 2°55.675 11.3993 3.286089 28.432654 10.713657
2006-04-27 06:58:01 51°13.799 2°55.666 11.4124 3.308306 28.646769 10.747366
2006-04-27 06:58:07 51°13.808 2°55.658 11.4272 3.286826 28.44398 10.679947
2006-04-27 06:58:11 51°13.815 2°55.652 11.4286 3.286826 28.44398 10.679947
2006-04-27 06:58:16 51°13.823 2°55.645 11.4366 3.303568 28.60196 10.646238
2006-04-27 06:58:21 51°13.832 2°55.638 11.4139 3.27019 28.2768 10.54511
2006-04-27 06:58:26 51°13.841 2°55.631 11.4374 3.280298 28.363824 10.54511
2006-04-27 06:58:32 51°13.851 2°55.622 11.4059 3.262293 28.183131 10.578819
2006-04-27 06:58:37 51°13.861 2°55.615 11.3937 3.244183 28.000486 10.5114
2006-04-27 06:58:41 51°13.868 2°55.609 11.397 3.244183 28.000486 10.5114
2006-04-27 06:58:47 51°13.879 2°55.601 11.3826 3.233444 27.888417 10.578819
2006-04-27 06:58:52 51°13.889 2°55.594 11.3783 3.225021 27.802719 10.646238
2006-04-27 06:58:57 51°13.899 2°55.587 11.3736 3.218072 27.735285 10.747366
2006-04-27 06:59:01 51°13.906 2°55.581 11.3572 3.223863 27.791082 10.747366
2006-04-27 06:59:07 51°13.919 2°55.573 11.3483 3.238813 27.933677 10.814785
2006-04-27 06:59:12 51°13.928 2°55.565 11.349 3.238813 27.933677 10.814785
2006-04-27 06:59:17 51°13.938 2°55.558 11.3546 3.245762 28.008973 10.848494
2006-04-27 06:59:21 51°13.946 2°55.553 11.3367 3.26145 28.163622 10.882204
2006-04-27 06:59:27 51°13.959 2°55.544 11.3206 3.279245 28.343427 10.848494
2006-04-27 06:59:32 51°13.969 2°55.537 11.3385 3.273454 28.291669 10.848494
2006-04-27 06:59:37 51°13.979 2°55.53 11.3203 3.297776 28.534834 10.713657
2006-04-27 06:59:41 51°13.987 2°55.524 11.3443 3.297776 28.534834 10.713657
2006-04-27 06:59:47 51°13.999 2°55.516 11.3278 3.304831 28.612232 10.578819
2006-04-27 06:59:52 51°14.01 2°55.509 11.3446 3.315361 28.715648 10.646238
2006-04-27 06:59:57 51°14.02 2°55.502 11.3273 3.314835 28.715524 10.612529
2006-04-27 07:00:01 51°14.028 2°55.496 11.3273 3.324312 28.813242 10.679947
2006-04-27 07:00:07 51°14.04 2°55.487 11.3369 3.334947 28.918449 10.679947
2006-04-27 07:00:12 51°14.05 2°55.48 11.3336 3.334947 28.918449 10.679947
2006-04-27 07:00:17 51°14.061 2°55.472 11.3409 3.317046 28.752148 10.747366
2006-04-27 07:00:22 51°14.071 2°55.465 11.3436 3.335368 28.926218 10.747366
2006-04-27 07:00:27 51°14.081 2°55.457 11.3439 3.331788 28.892451 10.781076
2006-04-27 07:00:32 51°14.091 2°55.449 11.352 3.317994 28.76001 10.781076
2006-04-27 07:00:37 51°14.102 2°55.441 11.3294 3.336316 28.935942 10.882204
2006-04-27 07:00:41 51°14.11 2°55.435 11.3333 3.336316 28.935942 10.882204
2006-04-27 07:00:47 51°14.122 2°55.425 11.3384 3.344951 29.018281 10.848494
2006-04-27 07:00:52 51°14.132 2°55.417 11.3328 3.343161 28.998591 10.915913
2006-04-27 07:00:57 51°14.142 2°55.408 11.317 3.341265 28.978515 10.949623
2006-04-27 07:01:01 51°14.149 2°55.4 11.3323 3.354007 29.102201 10.983332
2006-04-27 07:01:07 51°14.161 2°55.389 11.3368 3.353164 29.092855 11.050751
2006-04-27 07:01:12 51°14.171 2°55.38 11.331 3.353164 29.092855 11.050751
2006-04-27 07:01:17 51°14.181 2°55.37 11.3311 3.360957 29.171521 11.08446
2006-04-27 07:01:21 51°14.189 2°55.361 11.3371 3.366117 29.224907 11.151879
2006-04-27 07:01:27 51°14.201 2°55.348 11.3295 3.369066 29.253901 11.253007
2006-04-27 07:01:32 51°14.211 2°55.337 11.3291 3.368855 29.25627 11.253007
2006-04-27 07:01:37 51°14.22 2°55.326 11.3271 3.365064 29.22293 11.253007
2006-04-27 07:01:41 51°14.228 2°55.317 11.3165 3.365064 29.22293 11.253007
2006-04-27 07:01:47 51°14.238 2°55.301 11.3127 3.373173 29.298448 11.185589
2006-04-27 07:01:52 51°14.247 2°55.288 11.3133 3.362853 29.197893 11.151879
2006-04-27 07:01:57 51°14.256 2°55.275 11.3188 3.366012 29.228912 11.11817
2006-04-27 07:02:01 51°14.262 2°55.263 11.3198 3.360747 29.17826 11.08446
2006-04-27 07:02:07 51°14.271 2°55.245 11.3272 3.353481 29.110255 11.050751
2006-04-27 07:02:12 51°14.279 2°55.23 11.3151 3.353481 29.110255 11.050751
2006-04-27 07:02:17 51°14.286 2°55.215 11.3146 3.356324 29.139474 10.983332
2006-04-27 07:02:22 51°14.294 2°55.2 11.3139 3.366012 29.237698 11.017042
2006-04-27 07:02:27 51°14.301 2°55.184 11.3247 3.365696 29.239052 11.11817
2006-04-27 07:02:32 51°14.308 2°55.168 11.3189 3.373805 29.320263 11.11817
2006-04-27 07:02:37 51°14.316 2°55.153 11.3078 3.364748 29.231185 11.11817
2006-04-27 07:02:41 51°14.322 2°55.141 11.3003 3.364748 29.231185 11.11817
2006-04-27 07:02:47 51°14.331 2°55.123 11.3036 3.375384 29.332325 11.08446
2006-04-27 07:02:52 51°14.339 2°55.108 11.2896 3.359483 29.179884 11.08446
2006-04-27 07:02:57 51°14.347 2°55.093 11.2793 3.366328 29.248903 11.151879
2006-04-27 07:03:02 51°14.356 2°55.078 11.2605 3.375068 29.331803 11.185589
2006-04-27 07:03:07 51°14.364 2°55.064 11.2589 3.380123 29.379225 11.387845
2006-04-27 07:03:12 51°14.373 2°55.051 11.2476 3.380123 29.379225 11.387845
2006-04-27 07:03:17 51°14.382 2°55.037 11.2372 3.383598 29.417123 11.590101
2006-04-27 07:03:21 51°14.39 2°55.026 11.2256 3.389601 29.477498 11.859777
2006-04-27 07:03:27 51°14.4 2°55.008 11.2168 3.39255 29.509724 12.196871
2006-04-27 07:03:29 51°14.404 2°55.002 11.2144 3.417088 29.754087 12.601383
2006-04-27 07:03:37 51°14.42 2°54.977 11.2073 3.41456 29.738638 12.904768
2006-04-27 07:03:42 51°14.43 2°54.962 11.1965 3.41456 29.738638 12.904768
2006-04-27 07:03:47 51°14.442 2°54.948 11.1889 3.431306 29.910028 13.107024
2006-04-27 07:03:51 51°14.451 2°54.936 11.164 3.43594 29.963848 13.275571
2006-04-27 07:03:57 51°14.464 2°54.918 11.1203 3.444155 30.053654 13.545247
2006-04-27 07:04:01 51°14.474 2°54.906 11.1014 3.44605 30.081716 14.050888
2006-04-27 07:04:07 51°14.489 2°54.888 11.0936 3.446998 30.09543 14.522819
2006-04-27 07:04:12 51°14.501 2°54.874 11.0592 3.446998 30.09543 14.522819
2006-04-27 07:04:16 51°14.512 2°54.863 11.0524 3.449842 30.130107 15.06217
2006-04-27 07:04:20 51°14.523 2°54.851 11.0311 3.462481 30.263655 15.331845
2006-04-27 07:04:27 51°14.541 2°54.83 11.0194 3.464903 30.298248 15.567811
2006-04-27 07:04:32 51°14.555 2°54.816 11.0254 3.486073 30.528067 15.770067
2006-04-27 07:04:37 51°14.569 2°54.802 11.0381 3.494078 30.627686 15.668939
2006-04-27 07:04:41 51°14.581 2°54.792 10.9925 3.494078 30.627686 15.668939
2006-04-27 07:04:47 51°14.598 2°54.777 10.9883 3.503453 30.735498 15.567811
2006-04-27 07:04:52 51°14.612 2°54.763 10.9953 3.509457 30.810618 15.466683
2006-04-27 07:04:57 51°14.627 2°54.749 10.9673 3.527258 31.007636 15.264426
2006-04-27 07:05:02 51°14.641 2°54.735 10.9636 3.531682 31.068311 14.994751
2006-04-27 07:05:07 51°14.656 2°54.722 10.9635 3.532946 31.088741 14.826204
2006-04-27 07:05:12 51°14.671 2°54.708 10.9474 3.532946 31.088741 14.826204
2006-04-27 07:05:16 51°14.683 2°54.698 10.9519 3.51999 30.966218 14.792494
2006-04-27 07:05:22 51°14.7 2°54.681 10.9433 3.537265 31.147145 14.792494
2006-04-27 07:05:27 51°14.715 2°54.669 10.939 3.544217 31.224611 14.893623
2006-04-27 07:05:32 51°14.73 2°54.657 10.9351 3.526205 31.058566 14.961042
2006-04-27 07:05:36 51°14.743 2°54.648 10.9059 3.530313 31.110221 14.859913
2006-04-27 07:05:40 51°14.755 2°54.639 10.9038 3.530313 31.110221 14.859913
2006-04-27 07:05:47 51°14.777 2°54.624 10.904 3.545481 31.263434 14.893623
2006-04-27 07:05:52 51°14.793 2°54.613 10.8958 3.544428 31.263304 14.792494
2006-04-27 07:05:57 51°14.808 2°54.602 10.8929 3.560649 31.428402 14.927332
2006-04-27 07:06:01 51°14.821 2°54.592 10.882 3.557911 31.40633 15.02846
2006-04-27 07:06:07 51°14.839 2°54.579 10.8793 3.559807 31.431069 14.893623
2006-04-27 07:06:12 51°14.855 2°54.569 10.8774 3.559807 31.431069 14.893623
2006-04-27 07:06:17 51°14.871 2°54.558 10.8797 3.56065 31.448906 14.657657
2006-04-27 07:06:21 51°14.883 2°54.548 10.8728 3.55591 31.414705 14.387982
2006-04-27 07:06:27 51°14.901 2°54.534 10.8755 3.560966 31.469802 14.286853
2006-04-27 07:06:31 51°14.913 2°54.524 10.8682 3.559175 31.46044 14.152016
2006-04-27 07:06:37 51°14.931 2°54.508 10.8738 3.540215 31.280487 13.949759
2006-04-27 07:06:41 51°14.943 2°54.498 10.8757 3.540215 31.280487 13.949759
2006-04-27 07:06:47 51°14.961 2°54.482 10.8665 3.553277 31.41484 13.646375
2006-04-27 07:06:51 51°14.973 2°54.471 10.8762 3.557069 31.456191 13.3767
2006-04-27 07:06:57 51°14.99 2°54.453 10.8667 3.551065 31.400642 13.208153
2006-04-27 07:07:01 51°15.001 2°54.44 10.8651 3.553593 31.42821 13.073315
2006-04-27 07:07:07 51°15.017 2°54.42 10.8626 3.554225 31.438528 12.904768
2006-04-27 07:07:12 51°15.03 2°54.403 10.8604 3.554225 31.438528 12.904768
2006-04-27 07:07:17 51°15.042 2°54.386 10.8643 3.552118 31.417147 12.80364
2006-04-27 07:07:21 51°15.053 2°54.372 10.8553 3.547378 31.373322 12.736221
2006-04-27 07:07:27 51°15.068 2°54.351 10.8542 3.53832 31.285725 13.140734
2006-04-27 07:07:32 51°15.081 2°54.333 10.8571 3.567392 31.572742 14.118306
2006-04-27 07:07:37 51°15.093 2°54.315 10.8593 3.554014 31.443309 14.961042
2006-04-27 07:07:41 51°15.104 2°54.301 10.8619 3.554014 31.443309 14.961042
2006-04-27 07:07:47 51°15.119 2°54.28 10.8477 3.565285 31.556157 15.837486
2006-04-27 07:07:52 51°15.132 2°54.263 10.8551 3.558755 31.494699 16.579093
2006-04-27 07:07:57 51°15.146 2°54.247 10.8345 3.556121 31.470185 17.017315
2006-04-27 07:08:02 51°15.16 2°54.231 10.8442 3.560651 31.517461 17.152153
2006-04-27 07:08:07 51°15.175 2°54.216 10.8408 3.561072 31.523665 16.882477
2006-04-27 07:08:11 51°15.186 2°54.205 10.8416 3.561072 31.523665 16.882477
2006-04-27 07:08:17 51°15.204 2°54.19 10.8279 3.553067 31.444274 16.511674
2006-04-27 07:08:21 51°15.216 2°54.18 10.8273 3.558755 31.500879 15.904905
2006-04-27 07:08:27 51°15.234 2°54.167 10.8241 3.551803 31.433905 15.365554
2006-04-27 07:08:31 51°15.247 2°54.158 10.8199 3.559703 31.514323 15.02846
2006-04-27 07:08:37 51°15.265 2°54.144 10.8197 3.548643 31.409009 14.691366
2006-04-27 07:08:40 51°15.274 2°54.138 10.8221 3.548643 31.409009 14.691366
2006-04-27 07:08:47 51°15.296 2°54.121 10.8265 3.555489 31.477011 14.387982
2006-04-27 07:08:52 51°15.311 2°54.108 10.8213 3.552224 31.447647 14.084597
2006-04-27 07:08:57 51°15.326 2°54.096 10.8274 3.543271 31.366467 13.882341
2006-04-27 07:09:02 51°15.341 2°54.081 10.8194 3.555068 31.486602 13.612665
2006-04-27 07:09:07 51°15.355 2°54.066 10.8198 3.53337 31.274604 13.34299
2006-04-27 07:09:12 51°15.369 2°54.05 10.8208 3.53337 31.274604 13.34299
2006-04-27 07:09:17 51°15.384 2°54.033 10.8245 3.546431 31.407129 13.174443
2006-04-27 07:09:21 51°15.395 2°54.02 10.8163 3.551382 31.456514 13.005896
2006-04-27 07:09:27 51°15.412 2°54 10.8152 3.553172 31.473445 12.736221
2006-04-27 07:09:32 51°15.426 2°53.983 10.8125 3.552856 31.472396 12.533965
2006-04-27 07:09:37 51°15.441 2°53.967 10.8096 3.534844 31.297294 12.466546
2006-04-27 07:09:41 51°15.452 2°53.954 10.8078 3.534844 31.297294 12.466546
2006-04-27 07:09:47 51°15.47 2°53.935 10.8 3.534423 31.294517 12.297999
2006-04-27 07:09:52 51°15.484 2°53.919 10.7984 3.524838 31.200293 12.196871
2006-04-27 07:09:56 51°15.496 2°53.906 10.7944 3.537267 31.321798 12.129452
2006-04-27 07:10:01 51°15.51 2°53.89 10.7965 3.5399 31.349746 12.062033
2006-04-27 07:10:07 51°15.528 2°53.871 10.7849 3.528735 31.242691 12.062033
2006-04-27 07:10:12 51°15.542 2°53.856 10.7844 3.528735 31.242691 12.062033
2006-04-27 07:10:17 51°15.557 2°53.84 10.7815 3.548959 31.444348 11.994614
2006-04-27 07:10:22 51°15.572 2°53.825 10.7724 3.552119 31.478883 11.927195
2006-04-27 07:10:27 51°15.586 2°53.809 10.7737 3.551803 31.47921 11.826067
2006-04-27 07:10:31 51°15.598 2°53.796 10.7656 3.554753 31.509622 11.69123
2006-04-27 07:10:37 51°15.616 2°53.777 10.7677 3.553594 31.501655 11.65752
2006-04-27 07:10:41 51°15.627 2°53.765 10.7635 3.553594 31.501655 11.65752
2006-04-27 07:10:47 51°15.645 2°53.746 10.7663 3.558229 31.550741 11.387845
2006-04-27 07:10:52 51°15.659 2°53.73 10.7532 3.560019 31.573207 11.286717
2006-04-27 07:10:56 51°15.671 2°53.717 10.749 3.562232 31.600525 11.08446
2006-04-27 07:11:00 51°15.682 2°53.704 10.7466 3.564338 31.624051 11.017042
2006-04-27 07:11:07 51°15.702 2°53.68 10.7409 3.566445 31.648967 10.915913
2006-04-27 07:11:11 51°15.713 2°53.666 10.7413 3.566445 31.648967 10.915913
2006-04-27 07:11:17 51°15.73 2°53.646 10.7419 3.568657 31.673546 10.814785
2006-04-27 07:11:21 51°15.742 2°53.633 10.744 3.570553 31.695014 10.713657
2006-04-27 07:11:26 51°15.757 2°53.618 10.7376 3.571501 31.708524 10.54511
2006-04-27 07:11:31 51°15.771 2°53.602 10.731 3.574346 31.742827 10.410272
2006-04-27 07:11:37 51°15.789 2°53.584 10.73 3.576663 31.769864 10.376563
2006-04-27 07:11:40 51°15.797 2°53.575 10.728 3.576663 31.769864 10.376563
2006-04-27 07:11:47 51°15.818 2°53.554 10.713 3.578138 31.787201 10.275435
2006-04-27 07:11:51 51°15.83 2°53.542 10.7169 3.579191 31.801773 10.208016
2006-04-27 07:11:56 51°15.844 2°53.526 10.7046 3.580771 31.818766 10.106888
2006-04-27 07:12:00 51°15.855 2°53.512 10.7004 3.58351 31.845113 9.938341
2006-04-27 07:12:07 51°15.875 2°53.487 10.7013 3.58646 31.878425 9.870922
2006-04-27 07:12:12 51°15.888 2°53.469 10.7029 3.58646 31.878425 9.870922
2006-04-27 07:12:17 51°15.902 2°53.45 10.7015 3.58962 31.913832 9.904631
2006-04-27 07:12:22 51°15.915 2°53.431 10.7084 3.593518 31.95794 9.803503
2006-04-27 07:12:27 51°15.929 2°53.413 10.7077 3.597731 32.004494 9.803503
2006-04-27 07:12:32 51°15.943 2°53.396 10.7159 3.600997 32.0438 9.769794
2006-04-27 07:12:37 51°15.957 2°53.378 10.7153 3.604157 32.077869 9.668665
2006-04-27 07:12:42 51°15.971 2°53.36 10.7154 3.604157 32.077869 9.668665
2006-04-27 07:12:47 51°15.984 2°53.342 10.7142 3.603947 32.082813 9.668665
2006-04-27 07:12:51 51°15.996 2°53.328 10.7186 3.60184 32.062671 9.601247
2006-04-27 07:12:57 51°16.012 2°53.307 10.7188 3.599417 32.037297 9.634956
2006-04-27 07:13:01 51°16.024 2°53.294 10.7147 3.59573 31.999424 9.634956
2006-04-27 07:13:07 51°16.041 2°53.273 10.7265 3.59278 31.967453 9.668665
2006-04-27 07:13:12 51°16.056 2°53.258 10.7237 3.59278 31.967453 9.668665
2006-04-27 07:13:16 51°16.067 2°53.246 10.7207 3.588251 31.920569 9.702375
2006-04-27 07:13:20 51°16.079 2°53.233 10.723 3.58646 31.901469 9.837212
2006-04-27 07:13:27 51°16.1 2°53.213 10.7204 3.585196 31.887578 9.837212
2006-04-27 07:13:32 51°16.115 2°53.197 10.7206 3.582773 31.863634 9.938341
2006-04-27 07:13:37 51°16.13 2°53.182 10.717 3.58172 31.851829 10.005759
2006-04-27 07:13:40 51°16.139 2°53.173 10.7096 3.58172 31.851829 10.005759
2006-04-27 07:13:47 51°16.16 2°53.152 10.7115 3.579192 31.824757 10.106888
2006-04-27 07:13:52 51°16.176 2°53.138 10.7113 3.577295 31.803935 10.174306
2006-04-27 07:13:57 51°16.191 2°53.124 10.7098 3.574767 31.781051 10.342853
2006-04-27 07:14:00 51°16.2 2°53.116 10.7137 3.572029 31.754 10.54511
2006-04-27 07:14:07 51°16.222 2°53.096 10.708 3.571502 31.750189 10.578819
2006-04-27 07:14:12 51°16.237 2°53.083 10.704 3.571502 31.750189 10.578819
2006-04-27 07:14:17 51°16.253 2°53.069 10.7042 3.571397 31.748453 10.747366
2006-04-27 07:14:21 51°16.265 2°53.058 10.7004 3.571502 31.753666 10.781076
2006-04-27 07:14:27 51°16.284 2°53.04 10.6996 3.570975 31.749855 10.882204
2006-04-27 07:14:32 51°16.299 2°53.025 10.7 3.570659 31.748124 10.882204
2006-04-27 07:14:37 51°16.314 2°53.01 10.6938 3.569817 31.740495 10.915913
2006-04-27 07:14:41 51°16.326 2°52.998 10.6967 3.569817 31.740495 10.915913
2006-04-27 07:14:47 51°16.344 2°52.98 10.6889 3.569079 31.734602 10.983332
2006-04-27 07:14:52 51°16.36 2°52.966 10.6923 3.568131 31.726627 11.017042
2006-04-27 07:14:57 51°16.375 2°52.952 10.6848 3.567183 31.720042 11.050751
2006-04-27 07:15:02 51°16.391 2°52.938 10.6849 3.567499 31.725944 11.08446
2006-04-27 07:15:07 51°16.407 2°52.926 10.6815 3.566341 31.717277 11.11817
2006-04-27 07:15:12 51°16.422 2°52.914 10.6758 3.566341 31.717277 11.11817
2006-04-27 07:15:17 51°16.439 2°52.902 10.6744 3.566446 31.720403 11.08446
2006-04-27 07:15:21 51°16.451 2°52.893 10.6714 3.565919 31.715894 11.11817
2006-04-27 07:15:27 51°16.47 2°52.878 10.6626 3.566657 31.725266 11.050751
2006-04-27 07:15:32 51°16.485 2°52.866 10.6542 3.568553 31.7447 10.983332
2006-04-27 07:15:37 51°16.501 2°52.853 10.6468 3.570554 31.767266 10.915913
2006-04-27 07:15:41 51°16.513 2°52.843 10.641 3.570554 31.767266 10.915913
2006-04-27 07:15:47 51°16.532 2°52.828 10.6385 3.572661 31.792273 10.747366
2006-04-27 07:15:52 51°16.548 2°52.815 10.6357 3.575611 31.825624 10.54511
2006-04-27 07:15:57 51°16.563 2°52.803 10.635 3.581404 31.885025 10.275435
2006-04-27 07:16:01 51°16.576 2°52.793 10.6357 3.593834 32.012941 10.005759
2006-04-27 07:16:07 51°16.595 2°52.779 10.6286 3.608477 32.164294 9.769794
2006-04-27 07:16:11 51°16.607 2°52.77 10.6236 3.608477 32.164294 9.769794
2006-04-27 07:16:17 51°16.625 2°52.754 10.6229 3.620907 32.293866 9.533828
2006-04-27 07:16:21 51°16.637 2°52.744 10.6237 3.632495 32.414486 9.297862
2006-04-27 07:16:27 51°16.655 2°52.728 10.6221 3.641661 32.511152 9.196734
2006-04-27 07:16:31 51°16.667 2°52.716 10.6153 3.647455 32.572259 9.095606
2006-04-27 07:16:36 51°16.682 2°52.703 10.621 3.653249 32.631961 9.095606
2006-04-27 07:16:40 51°16.694 2°52.691 10.6198 3.653249 32.631961 9.095606
2006-04-27 07:16:47 51°16.714 2°52.672 10.6209 3.658938 32.692075 8.994477
2006-04-27 07:16:51 51°16.726 2°52.66 10.6156 3.662309 32.729895 8.960768
2006-04-27 07:16:57 51°16.743 2°52.642 10.6165 3.665364 32.763868 9.028187
2006-04-27 07:17:02 51°16.757 2°52.628 10.6163 3.667155 32.781677 8.960768
2006-04-27 07:17:07 51°16.771 2°52.614 10.6202 3.669052 32.80486 8.960768
2006-04-27 07:17:11 51°16.783 2°52.604 10.6243 3.669052 32.80486 8.960768
2006-04-27 07:17:17 51°16.8 2°52.589 10.61 3.669789 32.812917 9.028187
2006-04-27 07:17:21 51°16.812 2°52.579 10.6118 3.668736 32.80388 9.061896
2006-04-27 07:17:27 51°16.831 2°52.565 10.609 3.665575 32.772445 9.129315
2006-04-27 07:17:32 51°16.846 2°52.554 10.6114 3.669473 32.813379 9.129315
2006-04-27 07:17:36 51°16.858 2°52.546 10.61 3.668736 32.80388 9.129315
2006-04-27 07:17:40 51°16.87 2°52.537 10.6163 3.668736 32.80388 9.129315
2006-04-27 07:17:47 51°16.892 2°52.524 10.6151 3.667682 32.793401 9.129315
2006-04-27 07:17:52 51°16.908 2°52.514 10.6044 3.667471 32.790585 9.129315
2006-04-27 07:17:57 51°16.923 2°52.506 10.6006 3.667155 32.790324 9.163024
2006-04-27 07:18:00 51°16.933 2°52.5 10.603 3.665575 32.776047 9.196734
2006-04-27 07:18:07 51°16.955 2°52.488 10.6006 3.663679 32.758626 9.230443
2006-04-27 07:18:12 51°16.971 2°52.479 10.6027 3.663679 32.758626 9.230443
2006-04-27 07:18:17 51°16.986 2°52.471 10.6029 3.662836 32.752404 9.264153
2006-04-27 07:18:20 51°16.995 2°52.467 10.6035 3.661993 32.741862 9.230443
2006-04-27 07:18:27 51°17.018 2°52.457 10.6062 3.66094 32.732104 9.264153
2006-04-27 07:18:32 51°17.034 2°52.451 10.6127 3.659465 32.722472 9.331571
2006-04-27 07:18:37 51°17.05 2°52.444 10.6075 3.657885 32.709632 9.365281
2006-04-27 07:18:42 51°17.066 2°52.439 10.6033 3.657885 32.709632 9.365281
2006-04-27 07:18:47 51°17.082 2°52.433 10.6058 3.653776 32.66877 9.365281
2006-04-27 07:18:52 51°17.098 2°52.428 10.6064 3.653249 32.663532 9.39899
2006-04-27 07:18:57 51°17.115 2°52.423 10.5996 3.653144 32.661766 9.500118
2006-04-27 07:19:01 51°17.127 2°52.418 10.6066 3.651248 32.64291 9.500118
2006-04-27 07:19:07 51°17.147 2°52.411 10.6072 3.649246 32.621574 9.466409
2006-04-27 07:19:12 51°17.163 2°52.403 10.6042 3.649246 32.621574 9.466409
2006-04-27 07:19:17 51°17.178 2°52.395 10.6053 3.646612 32.596108 9.601247
2006-04-27 07:19:22 51°17.194 2°52.385 10.6045 3.642188 32.553558 9.601247
2006-04-27 07:19:27 51°17.21 2°52.375 10.6077 3.642399 32.555653 9.668665
2006-04-27 07:19:31 51°17.222 2°52.366 10.6085 3.639449 32.527051 9.736084
2006-04-27 07:19:37 51°17.241 2°52.353 10.6075 3.637553 32.50892 9.803503
2006-04-27 07:19:41 51°17.253 2°52.345 10.6083 3.637553 32.50892 9.803503
2006-04-27 07:19:47 51°17.271 2°52.332 10.6118 3.634814 32.481702 9.803503
2006-04-27 07:19:52 51°17.286 2°52.321 10.6116 3.632285 32.45658 9.870922
2006-04-27 07:19:56 51°17.299 2°52.314 10.6198 3.629757 32.431461 9.870922
2006-04-27 07:20:00 51°17.312 2°52.306 10.6177 3.628177 32.415763 9.870922
2006-04-27 07:20:07 51°17.334 2°52.294 10.6243 3.626281 32.396214 9.870922
2006-04-27 07:20:12 51°17.35 2°52.285 10.6209 3.626281 32.396214 9.870922
2006-04-27 07:20:17 51°17.365 2°52.276 10.6177 3.622277 32.355032 9.97205
2006-04-27 07:20:21 51°17.378 2°52.269 10.6172 3.618801 32.319802 9.97205
2006-04-27 07:20:27 51°17.397 2°52.257 10.6168 3.620592 32.336162 10.005759
2006-04-27 07:20:32 51°17.412 2°52.245 10.6173 3.616062 32.288349 10.073178
2006-04-27 07:20:36 51°17.424 2°52.235 10.6201 3.61701 32.294921 10.073178
2006-04-27 07:20:41 51°17.439 2°52.222 10.6201 3.61701 32.294921 10.073178
2006-04-27 07:20:47 51°17.456 2°52.206 10.618 3.615851 32.280581 10.140597
2006-04-27 07:20:51 51°17.468 2°52.194 10.62 3.613218 32.253736 10.174306
2006-04-27 07:20:57 51°17.485 2°52.176 10.6249 3.611216 32.236709 10.241725
2006-04-27 07:21:02 51°17.499 2°52.16 10.6213 3.609215 32.217557 10.241725
2006-04-27 07:21:07 51°17.513 2°52.145 10.6253 3.607319 32.19945 10.275435
2006-04-27 07:21:09 51°17.518 2°52.138 10.6237 3.607319 32.19945 10.275435
2006-04-27 07:21:17 51°17.54 2°52.111 10.6255 3.606265 32.188291 10.275435
2006-04-27 07:21:22 51°17.553 2°52.093 10.6282 3.605001 32.175042 10.309144
2006-04-27 07:21:27 51°17.567 2°52.075 10.6271 3.602894 32.153436 10.376563
2006-04-27 07:21:32 51°17.58 2°52.057 10.6322 3.598575 32.112009 10.376563
2006-04-27 07:21:37 51°17.592 2°52.038 10.631 3.600998 32.132509 10.376563
2006-04-27 07:21:41 51°17.602 2°52.022 10.6312 3.600998 32.132509 10.376563
2006-04-27 07:21:47 51°17.617 2°51.998 10.6331 3.596258 32.085499 10.410272
2006-04-27 07:21:52 51°17.629 2°51.978 10.6346 3.598259 32.106052 10.443982
2006-04-27 07:21:57 51°17.641 2°51.957 10.6364 3.596152 32.08234 10.443982
2006-04-27 07:22:01 51°17.65 2°51.94 10.6368 3.596784 32.087196 10.5114
2006-04-27 07:22:07 51°17.664 2°51.914 10.6361 3.596258 32.080564 10.612529
2006-04-27 07:22:12 51°17.675 2°51.893 10.639 3.596258 32.080564 10.612529
2006-04-27 07:22:17 51°17.687 2°51.871 10.6417 3.594888 32.066283 10.679947
2006-04-27 07:22:21 51°17.696 2°51.854 10.6403 3.594467 32.062106 10.713657
2006-04-27 07:22:27 51°17.708 2°51.826 10.6461 3.592992 32.046078 10.814785
2006-04-27 07:22:32 51°17.718 2°51.802 10.6419 3.591939 32.03423 10.781076
2006-04-27 07:22:37 51°17.727 2°51.778 10.6455 3.590148 32.015778 10.848494
2006-04-27 07:22:41 51°17.734 2°51.757 10.6448 3.590148 32.015778 10.848494
2006-04-27 07:22:47 51°17.743 2°51.726 10.6437 3.589516 32.007405 10.882204
2006-04-27 07:22:52 51°17.751 2°51.699 10.6473 3.587725 31.988957 10.983332
2006-04-27 07:22:57 51°17.758 2°51.672 10.6456 3.58625 31.97294 11.017042
2006-04-27 07:23:01 51°17.763 2°51.65 10.6475 3.583195 31.941975 10.983332
2006-04-27 07:23:07 51°17.771 2°51.617 10.6513 3.583617 31.945448 11.08446
2006-04-27 07:23:12 51°17.777 2°51.589 10.651 3.583617 31.945448 11.08446
2006-04-27 07:23:17 51°17.783 2°51.561 10.6502 3.581194 31.920047 11.050751
2006-04-27 07:23:22 51°17.789 2°51.533 10.6499 3.576348 31.87136 11.08446
2006-04-27 07:23:27 51°17.795 2°51.505 10.6534 3.579509 31.902654 11.08446
2006-04-27 07:23:32 51°17.801 2°51.477 10.6559 3.577718 31.88422 11.050751
2006-04-27 07:23:37 51°17.808 2°51.449 10.6538 3.576454 31.870304 11.08446
2006-04-27 07:23:41 51°17.813 2°51.427 10.6592 3.576454 31.870304 11.08446
2006-04-27 07:23:47 51°17.822 2°51.394 10.6548 3.57382 31.843531 11.050751
2006-04-27 07:23:52 51°17.83 2°51.368 10.6544 3.576138 31.864376 11.151879
2006-04-27 07:23:56 51°17.836 2°51.346 10.6565 3.559811 31.702092 11.11817
2006-04-27 07:24:01 51°17.844 2°51.319 10.653 3.571924 31.819171 11.185589
2006-04-27 07:24:07 51°17.854 2°51.287 10.6515 3.572556 31.82403 11.185589
2006-04-27 07:24:12 51°17.862 2°51.26 10.6508 3.572556 31.82403 11.185589
2006-04-27 07:24:17 51°17.871 2°51.233 10.652 3.573188 31.828888 11.253007
2006-04-27 07:24:21 51°17.877 2°51.211 10.6517 3.57224 31.818807 11.387845
2006-04-27 07:24:27 51°17.887 2°51.179 10.6526 3.571397 31.811165 11.488973
2006-04-27 07:24:32 51°17.895 2°51.152 10.653 3.570871 31.807349 11.556392
2006-04-27 07:24:37 51°17.903 2°51.124 10.6527 3.566552 31.765309 11.623811
2006-04-27 07:24:41 51°17.909 2°51.102 10.6502 3.566552 31.765309 11.623811
2006-04-27 07:24:47 51°17.919 2°51.069 10.6507 3.568764 31.787199 11.758648
2006-04-27 07:24:52 51°17.926 2°51.041 10.6505 3.562971 31.731267 11.826067
2006-04-27 07:24:57 51°17.933 2°51.013 10.6488 3.567605 31.777825 11.960905
2006-04-27 07:25:00 51°17.938 2°50.996 10.6561 3.566657 31.767746 11.960905
2006-04-27 07:25:07 51°17.949 2°50.957 10.6512 3.566341 31.765317 11.994614
2006-04-27 07:25:12 51°17.956 2°50.929 10.6509 3.566341 31.765317 11.994614
2006-04-27 07:25:17 51°17.963 2°50.901 10.6541 3.566131 31.763232 11.960905
2006-04-27 07:25:22 51°17.971 2°50.872 10.6501 3.564972 31.753161 11.893486
2006-04-27 07:25:27 51°17.978 2°50.844 10.6541 3.557809 31.681597 11.792358
2006-04-27 07:25:32 51°17.986 2°50.817 10.6436 3.562865 31.730921 11.69123
2006-04-27 07:25:36 51°17.992 2°50.794 10.6404 3.561707 31.720154 11.65752
2006-04-27 07:25:40 51°17.998 2°50.772 10.6395 3.561707 31.720154 11.65752
2006-04-27 07:25:47 51°18.009 2°50.732 10.6393 3.561496 31.715981 11.556392
2006-04-27 07:25:52 51°18.017 2°50.705 10.6307 3.554649 31.648951 11.522683
2006-04-27 07:25:57 51°18.024 2°50.677 10.6277 3.559073 31.693406 11.623811
2006-04-27 07:26:01 51°18.03 2°50.655 10.6241 3.56118 31.712159 11.792358
2006-04-27 07:26:07 51°18.039 2°50.621 10.6194 3.562971 31.73475 11.927195
2006-04-27 07:26:12 51°18.047 2°50.593 10.6197 3.562971 31.73475 11.927195
2006-04-27 07:26:16 51°18.054 2°50.571 10.6233 3.568027 31.78688 11.960905
2006-04-27 07:26:20 51°18.06 2°50.548 10.6161 3.568869 31.797315 12.028324
2006-04-27 07:26:27 51°18.071 2°50.51 10.6083 3.571819 31.829309 11.994614
2006-04-27 07:26:32 51°18.079 2°50.482 10.6082 3.569607 31.812299 11.994614
2006-04-27 07:26:36 51°18.085 2°50.46 10.6046 3.572872 31.847432 11.994614
2006-04-27 07:26:40 51°18.091 2°50.438 10.5952 3.572872 31.847432 11.994614
2006-04-27 07:26:47 51°18.102 2°50.399 10.593 3.569291 31.817557 11.960905
2006-04-27 07:26:52 51°18.11 2°50.371 10.58 3.570134 31.826602 11.893486
2006-04-27 07:26:57 51°18.117 2°50.342 10.5753 3.56887 31.815481 11.893486
2006-04-27 07:27:01 51°18.123 2°50.32 10.5722 3.568238 31.812017 11.724939
2006-04-27 07:27:07 51°18.132 2°50.286 10.5637 3.570345 31.837783 11.65752
2006-04-27 07:27:12 51°18.139 2°50.258 10.5625 3.570345 31.837783 11.65752
2006-04-27 07:27:17 51°18.147 2°50.23 10.5605 3.567922 31.815179 11.590101
2006-04-27 07:27:21 51°18.152 2°50.207 10.5594 3.565499 31.798867 11.792358
2006-04-27 07:27:27 51°18.161 2°50.174 10.5484 3.572346 31.870923 11.859777
2006-04-27 07:27:32 51°18.169 2°50.145 10.5414 3.575612 31.911716 11.893486
2006-04-27 07:27:37 51°18.176 2°50.117 10.5369 3.573505 31.896438 11.960905
2006-04-27 07:27:41 51°18.182 2°50.095 10.5346 3.573505 31.896438 11.960905
2006-04-27 07:27:47 51°18.192 2°50.061 10.5301 3.575401 31.920862 12.095742
2006-04-27 07:27:52 51°18.199 2°50.033 10.526 3.577824 31.949819 12.129452
2006-04-27 07:27:57 51°18.207 2°50.004 10.5286 3.572347 31.900388 12.297999
2006-04-27 07:28:02 51°18.214 2°49.976 10.5203 3.570029 31.882308 12.297999
2006-04-27 07:28:07 51°18.221 2°49.948 10.5195 3.576033 31.946817 12.399127
2006-04-27 07:28:08 51°18.222 2°49.942 10.514 3.576033 31.946817 12.399127
2006-04-27 07:28:17 51°18.236 2°49.891 10.5142 3.573505 31.925941 12.365418
2006-04-27 07:28:22 51°18.243 2°49.862 10.5043 3.572557 31.922858 12.399127
2006-04-27 07:28:27 51°18.25 2°49.833 10.5037 3.57024 31.903365 12.297999
2006-04-27 07:28:32 51°18.257 2°49.805 10.498 3.568028 31.885618 12.264289
2006-04-27 07:28:37 51°18.264 2°49.776 10.4917 3.566343 31.871693 12.163161
2006-04-27 07:28:41 51°18.27 2°49.753 10.4925 3.566343 31.871693 12.163161
2006-04-27 07:28:45 51°18.276 2°49.73 10.4949 3.561497 31.825691 12.095742
2006-04-27 07:28:51 51°18.285 2°49.695 10.4882 3.562129 31.837579 12.028324
2006-04-27 07:28:57 51°18.294 2°49.661 10.4864 3.559917 31.819122 11.859777
2006-04-27 07:29:02 51°18.302 2°49.632 10.4855 3.557073 31.794387 11.792358
2006-04-27 07:29:07 51°18.309 2°49.604 10.4861 3.553071 31.758846 11.623811
2006-04-27 07:29:12 51°18.317 2°49.576 10.4805 3.553071 31.758846 11.623811
2006-04-27 07:29:17 51°18.324 2°49.547 10.4851 3.550332 31.737252 11.522683
2006-04-27 07:29:21 51°18.33 2°49.524 10.4816 3.547067 31.706229 11.455264
2006-04-27 07:29:27 51°18.339 2°49.49 10.4805 3.542748 31.667543 11.286717
2006-04-27 07:29:32 51°18.347 2°49.462 10.4776 3.53864 31.627459 11.185589
2006-04-27 07:29:37 51°18.354 2°49.434 10.4779 3.534532 31.588774 11.11817
2006-04-27 07:29:41 51°18.36 2°49.412 10.4725 3.534532 31.588774 11.11817
2006-04-27 07:29:47 51°18.369 2°49.378 10.4707 3.530424 31.5487 11.11817
2006-04-27 07:29:52 51°18.377 2°49.35 10.4756 3.525684 31.503055 11.017042
2006-04-27 07:29:57 51°18.385 2°49.323 10.4653 3.525263 31.500264 11.017042
2006-04-27 07:30:01 51°18.391 2°49.3 10.4662 3.52263 31.47622 10.949623
2006-04-27 07:30:07 51°18.401 2°49.267 10.4644 3.522525 31.475869 10.915913
2006-04-27 07:30:11 51°18.407 2°49.245 10.4641 3.522525 31.475869 10.915913
2006-04-27 07:30:16 51°18.415 2°49.218 10.4573 3.521155 31.46506 10.983332
2006-04-27 07:30:20 51°18.421 2°49.196 10.461 3.519681 31.45251 10.983332
2006-04-27 07:30:26 51°18.431 2°49.163 10.4524 3.521893 31.474459 11.050751
2006-04-27 07:30:31 51°18.439 2°49.137 10.4593 3.526106 31.518361 11.08446
2006-04-27 07:30:37 51°18.449 2°49.104 10.4523 3.528845 31.547635 11.08446
2006-04-27 07:30:42 51°18.457 2°49.076 10.45 3.528845 31.547635 11.08446
2006-04-27 07:30:47 51°18.465 2°49.049 10.4513 3.530003 31.563319 11.11817
2006-04-27 07:30:52 51°18.473 2°49.022 10.4526 3.532426 31.589468 11.151879
2006-04-27 07:30:57 51°18.481 2°48.994 10.4474 3.535691 31.625391 11.11817
2006-04-27 07:31:01 51°18.488 2°48.972 10.4432 3.536955 31.639346 11.151879
2006-04-27 07:31:07 51°18.497 2°48.938 10.4382 3.539167 31.662722 11.151879
2006-04-27 07:31:12 51°18.505 2°48.911 10.4428 3.539167 31.662722 11.151879
2006-04-27 07:31:17 51°18.513 2°48.883 10.4419 3.542854 31.701457 11.185589
2006-04-27 07:31:22 51°18.521 2°48.855 10.4429 3.544434 31.719263 11.185589
2006-04-27 07:31:27 51°18.53 2°48.829 10.4426 3.54791 31.753818 11.151879
2006-04-27 07:31:31 51°18.536 2°48.807 10.445 3.549595 31.771977 11.11817
2006-04-27 07:31:37 51°18.547 2°48.774 10.4405 3.549806 31.776178 11.151879
2006-04-27 07:31:41 51°18.553 2°48.752 10.4411 3.549806 31.776178 11.151879
2006-04-27 07:31:47 51°18.564 2°48.72 10.4397 3.552439 31.805877 11.11817
2006-04-27 07:31:52 51°18.572 2°48.692 10.4362 3.553282 31.814962 11.11817
2006-04-27 07:31:57 51°18.58 2°48.664 10.4359 3.554441 31.82719 11.08446
2006-04-27 07:32:02 51°18.588 2°48.636 10.429 3.555705 31.83906 11.050751
2006-04-27 07:32:07 51°18.596 2°48.609 10.4286 3.556863 31.849179 10.983332
2006-04-27 07:32:12 51°18.603 2°48.581 10.4207 3.556863 31.849179 10.983332
2006-04-27 07:32:17 51°18.61 2°48.552 10.4193 3.558022 31.862114 11.017042
2006-04-27 07:32:21 51°18.616 2°48.529 10.4124 3.558128 31.865274 11.050751
2006-04-27 07:32:27 51°18.625 2°48.495 10.4095 3.559076 31.876819 10.983332
2006-04-27 07:32:32 51°18.632 2°48.466 10.4075 3.559708 31.883813 10.983332
2006-04-27 07:32:37 51°18.639 2°48.437 10.4072 3.56213 31.911448 10.949623
2006-04-27 07:32:41 51°18.645 2°48.415 10.401 3.56213 31.911448 10.949623
2006-04-27 07:32:47 51°18.654 2°48.38 10.4024 3.563394 31.926852 10.949623
2006-04-27 07:32:52 51°18.662 2°48.353 10.3973 3.566028 31.959425 10.949623
2006-04-27 07:32:57 51°18.67 2°48.324 10.3866 3.566765 31.969595 10.848494
2006-04-27 07:33:00 51°18.675 2°48.308 10.3862 3.568451 31.989917 10.915913
2006-04-27 07:33:07 51°18.686 2°48.268 10.3801 3.570663 32.014784 10.882204
2006-04-27 07:33:12 51°18.694 2°48.24 10.376 3.570663 32.014784 10.882204
2006-04-27 07:33:17 51°18.702 2°48.212 10.3658 3.567924 31.991038 10.882204
2006-04-27 07:33:21 51°18.709 2°48.189 10.3572 3.57277 32.041442 10.848494
2006-04-27 07:33:27 51°18.718 2°48.155 10.3541 3.574771 32.063516 10.814785
2006-04-27 07:33:32 51°18.726 2°48.127 10.3568 3.576457 32.085993 10.814785
2006-04-27 07:33:37 51°18.733 2°48.098 10.348 3.577931 32.10709 10.848494
2006-04-27 07:33:41 51°18.74 2°48.075 10.3384 3.577931 32.10709 10.848494
2006-04-27 07:33:47 51°18.749 2°48.04 10.3403 3.579722 32.129214 10.882204
2006-04-27 07:33:52 51°18.756 2°48.012 10.3397 3.580144 32.13982 10.882204
2006-04-27 07:33:56 51°18.762 2°47.988 10.3204 3.582988 32.173895 10.949623
2006-04-27 07:34:01 51°18.77 2°47.96 10.3233 3.586359 32.21253 10.983332
2006-04-27 07:34:07 51°18.779 2°47.925 10.3134 3.587728 32.231198 11.017042
2006-04-27 07:34:12 51°18.787 2°47.897 10.2932 3.587728 32.231198 11.017042
2006-04-27 07:34:17 51°18.795 2°47.868 10.2776 3.589203 32.251639 11.050751
2006-04-27 07:34:22 51°18.803 2°47.839 10.2561 3.58973 32.262619 11.151879
2006-04-27 07:34:27 51°18.811 2°47.811 10.2451 3.590257 32.272171 11.185589
2006-04-27 07:34:32 51°18.819 2°47.783 10.2262 3.590362 32.278948 11.286717
2006-04-27 07:34:37 51°18.826 2°47.754 10.2075 3.58973 32.278357 11.387845
2006-04-27 07:34:42 51°18.834 2°47.724 10.2134 3.58973 32.278357 11.387845
2006-04-27 07:34:47 51°18.842 2°47.696 10.2048 3.589098 32.279915 11.522683
2006-04-27 07:34:52 51°18.85 2°47.667 10.1941 3.588361 32.282569 11.623811
2006-04-27 07:34:57 51°18.857 2°47.638 10.1873 3.588361 32.298336 11.69123
2006-04-27 07:35:01 51°18.864 2°47.614 10.1888 3.58794 32.309902 11.724939
2006-04-27 07:35:07 51°18.873 2°47.58 10.1825 3.583832 32.283129 11.724939
2006-04-27 07:35:12 51°18.881 2°47.551 10.173 3.583832 32.283129 11.724939
2006-04-27 07:35:17 51°18.889 2°47.522 10.1819 3.585939 32.320744 11.69123
2006-04-27 07:35:21 51°18.896 2°47.499 10.1627 3.585518 32.324429 11.623811
2006-04-27 07:35:27 51°18.905 2°47.464 10.1606 3.584148 32.322212 11.590101
2006-04-27 07:35:32 51°18.912 2°47.435 10.1607 3.583306 32.322396 11.556392
2006-04-27 07:35:37 51°18.92 2°47.406 10.1631 3.582253 32.31831 11.455264
2006-04-27 07:35:42 51°18.928 2°47.376 10.1629 3.582253 32.31831 11.455264
2006-04-27 07:35:47 51°18.935 2°47.347 10.1559 3.581831 32.319122 11.421554
2006-04-27 07:35:51 51°18.941 2°47.323 10.1592 3.574879 32.255877 11.354136
2006-04-27 07:35:57 51°18.951 2°47.288 10.1577 3.574668 32.259513 11.320426
2006-04-27 07:36:02 51°18.958 2°47.259 10.1631 3.577091 32.288128 11.320426
2006-04-27 07:36:07 51°18.966 2°47.23 10.1561 3.571824 32.239609 11.219298